<?xml version="1.0" encoding="UTF-8" standalone="no" ?>
<gpx xmlns="http://www.topografix.com/GPX/1/1" xmlns:xsi="http://www.w3.org/2001/XMLSchema-instance" xsi:schemaLocation="http://www.topografix.com/GPX/1/1 http://www.topografix.com/GPX/1/1/gpx.xsd" version="1.1" creator="VisuGPX - https://www.visugpx.com">
  <metadata>
    <name>2023-04-24-46-Belmont Ste Foy</name>
    <desc><![CDATA[Randonnée de 11km sans difficulté Du patrimoine, des pierres, murets, cabanes ... . Un passage au Mas d'Aspech, lavoir, muret, pigeonnier ]]></desc>
  </metadata>
  <trk>
    <name><![CDATA[2023-04-24 17:01:12]]></name>
    <trkseg>
      <trkpt lat="44.28252" lon="1.63246">
        <ele>298.15</ele>
        <time>2023-04-24T11:56:40Z</time>
      </trkpt>
      <trkpt lat="44.28247" lon="1.63234">
        <ele>297.18</ele>
        <time>2023-04-24T11:59:53Z</time>
      </trkpt>
      <trkpt lat="44.28244" lon="1.63236">
        <ele>297.18</ele>
        <time>2023-04-24T12:04:38Z</time>
      </trkpt>
      <trkpt lat="44.28248" lon="1.63217">
        <ele>297.18</ele>
        <time>2023-04-24T12:05:03Z</time>
      </trkpt>
      <trkpt lat="44.2825" lon="1.63203">
        <ele>297.18</ele>
        <time>2023-04-24T12:05:13Z</time>
      </trkpt>
      <trkpt lat="44.28252" lon="1.63189">
        <ele>296.7</ele>
        <time>2023-04-24T12:05:23Z</time>
      </trkpt>
      <trkpt lat="44.28253" lon="1.63176">
        <ele>296.22</ele>
        <time>2023-04-24T12:05:32Z</time>
      </trkpt>
      <trkpt lat="44.28254" lon="1.63163">
        <ele>295.74</ele>
        <time>2023-04-24T12:05:41Z</time>
      </trkpt>
      <trkpt lat="44.28255" lon="1.63149">
        <ele>295.26</ele>
        <time>2023-04-24T12:05:50Z</time>
      </trkpt>
      <trkpt lat="44.28257" lon="1.63135">
        <ele>294.3</ele>
        <time>2023-04-24T12:06:00Z</time>
      </trkpt>
      <trkpt lat="44.28259" lon="1.6312">
        <ele>293.82</ele>
        <time>2023-04-24T12:06:11Z</time>
      </trkpt>
      <trkpt lat="44.28259" lon="1.63105">
        <ele>292.86</ele>
        <time>2023-04-24T12:06:20Z</time>
      </trkpt>
      <trkpt lat="44.2826" lon="1.63089">
        <ele>291.42</ele>
        <time>2023-04-24T12:06:30Z</time>
      </trkpt>
      <trkpt lat="44.28262" lon="1.63072">
        <ele>290.46</ele>
        <time>2023-04-24T12:06:40Z</time>
      </trkpt>
      <trkpt lat="44.28264" lon="1.63058">
        <ele>289.01</ele>
        <time>2023-04-24T12:06:49Z</time>
      </trkpt>
      <trkpt lat="44.28267" lon="1.63044">
        <ele>288.05</ele>
        <time>2023-04-24T12:06:58Z</time>
      </trkpt>
      <trkpt lat="44.28269" lon="1.6303">
        <ele>287.57</ele>
        <time>2023-04-24T12:07:09Z</time>
      </trkpt>
      <trkpt lat="44.28273" lon="1.63015">
        <ele>285.65</ele>
        <time>2023-04-24T12:07:34Z</time>
      </trkpt>
      <trkpt lat="44.28278" lon="1.63001">
        <ele>285.17</ele>
        <time>2023-04-24T12:07:44Z</time>
      </trkpt>
      <trkpt lat="44.2828" lon="1.62986">
        <ele>284.21</ele>
        <time>2023-04-24T12:07:56Z</time>
      </trkpt>
      <trkpt lat="44.28283" lon="1.6297">
        <ele>283.25</ele>
        <time>2023-04-24T12:08:06Z</time>
      </trkpt>
      <trkpt lat="44.28286" lon="1.62953">
        <ele>281.8</ele>
        <time>2023-04-24T12:08:15Z</time>
      </trkpt>
      <trkpt lat="44.2829" lon="1.62939">
        <ele>281.32</ele>
        <time>2023-04-24T12:08:24Z</time>
      </trkpt>
      <trkpt lat="44.28295" lon="1.62926">
        <ele>281.32</ele>
        <time>2023-04-24T12:08:34Z</time>
      </trkpt>
      <trkpt lat="44.28303" lon="1.6292">
        <ele>281.32</ele>
        <time>2023-04-24T12:08:43Z</time>
      </trkpt>
      <trkpt lat="44.28313" lon="1.6292">
        <ele>281.32</ele>
        <time>2023-04-24T12:08:52Z</time>
      </trkpt>
      <trkpt lat="44.28324" lon="1.6292">
        <ele>281.32</ele>
        <time>2023-04-24T12:09:01Z</time>
      </trkpt>
      <trkpt lat="44.28334" lon="1.62919">
        <ele>281.32</ele>
        <time>2023-04-24T12:09:10Z</time>
      </trkpt>
      <trkpt lat="44.28345" lon="1.62919">
        <ele>281.32</ele>
        <time>2023-04-24T12:09:19Z</time>
      </trkpt>
      <trkpt lat="44.28356" lon="1.62917">
        <ele>282.28</ele>
        <time>2023-04-24T12:09:29Z</time>
      </trkpt>
      <trkpt lat="44.28366" lon="1.62916">
        <ele>282.28</ele>
        <time>2023-04-24T12:09:38Z</time>
      </trkpt>
      <trkpt lat="44.28376" lon="1.62914">
        <ele>282.28</ele>
        <time>2023-04-24T12:09:47Z</time>
      </trkpt>
      <trkpt lat="44.28386" lon="1.62911">
        <ele>282.28</ele>
        <time>2023-04-24T12:09:57Z</time>
      </trkpt>
      <trkpt lat="44.28396" lon="1.62904">
        <ele>282.28</ele>
        <time>2023-04-24T12:10:07Z</time>
      </trkpt>
      <trkpt lat="44.28402" lon="1.62891">
        <ele>282.28</ele>
        <time>2023-04-24T12:10:17Z</time>
      </trkpt>
      <trkpt lat="44.28405" lon="1.62878">
        <ele>280.84</ele>
        <time>2023-04-24T12:10:27Z</time>
      </trkpt>
      <trkpt lat="44.28409" lon="1.62864">
        <ele>279.4</ele>
        <time>2023-04-24T12:10:35Z</time>
      </trkpt>
      <trkpt lat="44.28413" lon="1.62851">
        <ele>278.44</ele>
        <time>2023-04-24T12:10:44Z</time>
      </trkpt>
      <trkpt lat="44.28416" lon="1.62836">
        <ele>277.48</ele>
        <time>2023-04-24T12:10:53Z</time>
      </trkpt>
      <trkpt lat="44.28419" lon="1.62823">
        <ele>276.52</ele>
        <time>2023-04-24T12:11:01Z</time>
      </trkpt>
      <trkpt lat="44.28423" lon="1.62808">
        <ele>275.56</ele>
        <time>2023-04-24T12:11:09Z</time>
      </trkpt>
      <trkpt lat="44.28426" lon="1.62795">
        <ele>275.56</ele>
        <time>2023-04-24T12:11:16Z</time>
      </trkpt>
      <trkpt lat="44.2843" lon="1.62782">
        <ele>274.59</ele>
        <time>2023-04-24T12:11:23Z</time>
      </trkpt>
      <trkpt lat="44.28434" lon="1.62766">
        <ele>274.11</ele>
        <time>2023-04-24T12:11:31Z</time>
      </trkpt>
      <trkpt lat="44.28437" lon="1.62752">
        <ele>273.63</ele>
        <time>2023-04-24T12:11:39Z</time>
      </trkpt>
      <trkpt lat="44.28439" lon="1.62737">
        <ele>272.67</ele>
        <time>2023-04-24T12:11:47Z</time>
      </trkpt>
      <trkpt lat="44.28442" lon="1.62722">
        <ele>272.19</ele>
        <time>2023-04-24T12:11:56Z</time>
      </trkpt>
      <trkpt lat="44.28446" lon="1.62707">
        <ele>271.71</ele>
        <time>2023-04-24T12:12:05Z</time>
      </trkpt>
      <trkpt lat="44.28449" lon="1.62694">
        <ele>271.71</ele>
        <time>2023-04-24T12:12:13Z</time>
      </trkpt>
      <trkpt lat="44.28453" lon="1.62679">
        <ele>271.23</ele>
        <time>2023-04-24T12:12:22Z</time>
      </trkpt>
      <trkpt lat="44.28457" lon="1.62665">
        <ele>270.75</ele>
        <time>2023-04-24T12:12:31Z</time>
      </trkpt>
      <trkpt lat="44.28461" lon="1.62651">
        <ele>270.75</ele>
        <time>2023-04-24T12:12:41Z</time>
      </trkpt>
      <trkpt lat="44.28465" lon="1.62637">
        <ele>270.75</ele>
        <time>2023-04-24T12:12:50Z</time>
      </trkpt>
      <trkpt lat="44.28468" lon="1.62624">
        <ele>269.79</ele>
        <time>2023-04-24T12:12:58Z</time>
      </trkpt>
      <trkpt lat="44.28471" lon="1.62609">
        <ele>269.79</ele>
        <time>2023-04-24T12:13:07Z</time>
      </trkpt>
      <trkpt lat="44.28475" lon="1.62597">
        <ele>269.31</ele>
        <time>2023-04-24T12:13:15Z</time>
      </trkpt>
      <trkpt lat="44.28477" lon="1.62583">
        <ele>269.31</ele>
        <time>2023-04-24T12:13:24Z</time>
      </trkpt>
      <trkpt lat="44.28481" lon="1.62569">
        <ele>268.83</ele>
        <time>2023-04-24T12:13:33Z</time>
      </trkpt>
      <trkpt lat="44.28486" lon="1.62555">
        <ele>268.83</ele>
        <time>2023-04-24T12:13:42Z</time>
      </trkpt>
      <trkpt lat="44.2849" lon="1.62545">
        <ele>268.83</ele>
        <time>2023-04-24T12:13:58Z</time>
      </trkpt>
      <trkpt lat="44.28495" lon="1.62531">
        <ele>268.35</ele>
        <time>2023-04-24T12:14:07Z</time>
      </trkpt>
      <trkpt lat="44.28499" lon="1.62517">
        <ele>268.35</ele>
        <time>2023-04-24T12:14:15Z</time>
      </trkpt>
      <trkpt lat="44.28503" lon="1.62504">
        <ele>268.35</ele>
        <time>2023-04-24T12:14:24Z</time>
      </trkpt>
      <trkpt lat="44.28507" lon="1.62492">
        <ele>267.86</ele>
        <time>2023-04-24T12:14:32Z</time>
      </trkpt>
      <trkpt lat="44.28511" lon="1.62479">
        <ele>267.86</ele>
        <time>2023-04-24T12:14:40Z</time>
      </trkpt>
      <trkpt lat="44.28516" lon="1.62467">
        <ele>267.38</ele>
        <time>2023-04-24T12:14:48Z</time>
      </trkpt>
      <trkpt lat="44.28523" lon="1.62454">
        <ele>267.38</ele>
        <time>2023-04-24T12:14:57Z</time>
      </trkpt>
      <trkpt lat="44.28527" lon="1.62442">
        <ele>267.38</ele>
        <time>2023-04-24T12:15:05Z</time>
      </trkpt>
      <trkpt lat="44.28531" lon="1.62429">
        <ele>267.38</ele>
        <time>2023-04-24T12:15:13Z</time>
      </trkpt>
      <trkpt lat="44.28535" lon="1.62416">
        <ele>267.38</ele>
        <time>2023-04-24T12:15:22Z</time>
      </trkpt>
      <trkpt lat="44.28539" lon="1.62404">
        <ele>266.9</ele>
        <time>2023-04-24T12:15:31Z</time>
      </trkpt>
      <trkpt lat="44.28543" lon="1.62389">
        <ele>266.42</ele>
        <time>2023-04-24T12:15:41Z</time>
      </trkpt>
      <trkpt lat="44.28548" lon="1.62376">
        <ele>265.94</ele>
        <time>2023-04-24T12:15:49Z</time>
      </trkpt>
      <trkpt lat="44.28552" lon="1.62362">
        <ele>265.46</ele>
        <time>2023-04-24T12:15:58Z</time>
      </trkpt>
      <trkpt lat="44.28559" lon="1.6235">
        <ele>264.98</ele>
        <time>2023-04-24T12:16:07Z</time>
      </trkpt>
      <trkpt lat="44.28567" lon="1.6234">
        <ele>264.5</ele>
        <time>2023-04-24T12:16:16Z</time>
      </trkpt>
      <trkpt lat="44.28576" lon="1.62331">
        <ele>264.5</ele>
        <time>2023-04-24T12:16:25Z</time>
      </trkpt>
      <trkpt lat="44.28585" lon="1.62328">
        <ele>264.02</ele>
        <time>2023-04-24T12:16:48Z</time>
      </trkpt>
      <trkpt lat="44.28591" lon="1.62318">
        <ele>263.54</ele>
        <time>2023-04-24T12:17:03Z</time>
      </trkpt>
      <trkpt lat="44.28599" lon="1.62309">
        <ele>263.06</ele>
        <time>2023-04-24T12:17:11Z</time>
      </trkpt>
      <trkpt lat="44.28608" lon="1.62301">
        <ele>263.06</ele>
        <time>2023-04-24T12:17:19Z</time>
      </trkpt>
      <trkpt lat="44.28617" lon="1.62292">
        <ele>261.62</ele>
        <time>2023-04-24T12:17:29Z</time>
      </trkpt>
      <trkpt lat="44.28627" lon="1.62283">
        <ele>260.17</ele>
        <time>2023-04-24T12:17:38Z</time>
      </trkpt>
      <trkpt lat="44.28637" lon="1.62276">
        <ele>258.73</ele>
        <time>2023-04-24T12:17:47Z</time>
      </trkpt>
      <trkpt lat="44.28649" lon="1.62271">
        <ele>257.77</ele>
        <time>2023-04-24T12:17:56Z</time>
      </trkpt>
      <trkpt lat="44.28661" lon="1.62272">
        <ele>256.33</ele>
        <time>2023-04-24T12:18:05Z</time>
      </trkpt>
      <trkpt lat="44.28674" lon="1.62273">
        <ele>254.89</ele>
        <time>2023-04-24T12:18:15Z</time>
      </trkpt>
      <trkpt lat="44.28686" lon="1.62274">
        <ele>253.44</ele>
        <time>2023-04-24T12:18:25Z</time>
      </trkpt>
      <trkpt lat="44.28699" lon="1.62274">
        <ele>252.96</ele>
        <time>2023-04-24T12:18:35Z</time>
      </trkpt>
      <trkpt lat="44.28712" lon="1.62273">
        <ele>252.48</ele>
        <time>2023-04-24T12:18:54Z</time>
      </trkpt>
      <trkpt lat="44.28724" lon="1.62274">
        <ele>252</ele>
        <time>2023-04-24T12:19:04Z</time>
      </trkpt>
      <trkpt lat="44.28738" lon="1.62276">
        <ele>254.41</ele>
        <time>2023-04-24T12:19:17Z</time>
      </trkpt>
      <trkpt lat="44.2875" lon="1.62283">
        <ele>256.33</ele>
        <time>2023-04-24T12:19:29Z</time>
      </trkpt>
      <trkpt lat="44.28762" lon="1.62288">
        <ele>257.29</ele>
        <time>2023-04-24T12:19:40Z</time>
      </trkpt>
      <trkpt lat="44.28774" lon="1.62291">
        <ele>259.21</ele>
        <time>2023-04-24T12:19:51Z</time>
      </trkpt>
      <trkpt lat="44.28786" lon="1.62291">
        <ele>261.14</ele>
        <time>2023-04-24T12:20:01Z</time>
      </trkpt>
      <trkpt lat="44.28797" lon="1.62287">
        <ele>263.06</ele>
        <time>2023-04-24T12:20:12Z</time>
      </trkpt>
      <trkpt lat="44.28806" lon="1.62278">
        <ele>264.5</ele>
        <time>2023-04-24T12:20:22Z</time>
      </trkpt>
      <trkpt lat="44.28815" lon="1.62268">
        <ele>265.94</ele>
        <time>2023-04-24T12:20:32Z</time>
      </trkpt>
      <trkpt lat="44.28822" lon="1.62259">
        <ele>266.9</ele>
        <time>2023-04-24T12:20:42Z</time>
      </trkpt>
      <trkpt lat="44.28828" lon="1.62246">
        <ele>268.35</ele>
        <time>2023-04-24T12:20:54Z</time>
      </trkpt>
      <trkpt lat="44.28835" lon="1.62228">
        <ele>270.27</ele>
        <time>2023-04-24T12:21:39Z</time>
      </trkpt>
      <trkpt lat="44.2884" lon="1.62218">
        <ele>272.19</ele>
        <time>2023-04-24T12:22:44Z</time>
      </trkpt>
      <trkpt lat="44.28851" lon="1.62201">
        <ele>274.11</ele>
        <time>2023-04-24T12:23:05Z</time>
      </trkpt>
      <trkpt lat="44.28862" lon="1.6219">
        <ele>275.56</ele>
        <time>2023-04-24T12:23:16Z</time>
      </trkpt>
      <trkpt lat="44.28872" lon="1.62178">
        <ele>276.04</ele>
        <time>2023-04-24T12:23:28Z</time>
      </trkpt>
      <trkpt lat="44.28881" lon="1.62167">
        <ele>277.48</ele>
        <time>2023-04-24T12:23:38Z</time>
      </trkpt>
      <trkpt lat="44.2889" lon="1.62158">
        <ele>278.44</ele>
        <time>2023-04-24T12:23:49Z</time>
      </trkpt>
      <trkpt lat="44.28902" lon="1.62144">
        <ele>279.4</ele>
        <time>2023-04-24T12:24:35Z</time>
      </trkpt>
      <trkpt lat="44.2891" lon="1.62133">
        <ele>281.32</ele>
        <time>2023-04-24T12:24:47Z</time>
      </trkpt>
      <trkpt lat="44.28918" lon="1.62123">
        <ele>281.8</ele>
        <time>2023-04-24T12:24:58Z</time>
      </trkpt>
      <trkpt lat="44.28927" lon="1.62111">
        <ele>283.25</ele>
        <time>2023-04-24T12:25:09Z</time>
      </trkpt>
      <trkpt lat="44.28936" lon="1.62099">
        <ele>284.69</ele>
        <time>2023-04-24T12:25:19Z</time>
      </trkpt>
      <trkpt lat="44.28944" lon="1.62088">
        <ele>284.69</ele>
        <time>2023-04-24T12:25:29Z</time>
      </trkpt>
      <trkpt lat="44.28953" lon="1.62076">
        <ele>285.17</ele>
        <time>2023-04-24T12:25:38Z</time>
      </trkpt>
      <trkpt lat="44.28962" lon="1.62064">
        <ele>285.65</ele>
        <time>2023-04-24T12:25:48Z</time>
      </trkpt>
      <trkpt lat="44.2897" lon="1.62051">
        <ele>286.13</ele>
        <time>2023-04-24T12:25:58Z</time>
      </trkpt>
      <trkpt lat="44.28975" lon="1.62035">
        <ele>286.61</ele>
        <time>2023-04-24T12:26:23Z</time>
      </trkpt>
      <trkpt lat="44.2898" lon="1.62021">
        <ele>286.61</ele>
        <time>2023-04-24T12:26:33Z</time>
      </trkpt>
      <trkpt lat="44.28985" lon="1.62008">
        <ele>287.09</ele>
        <time>2023-04-24T12:26:42Z</time>
      </trkpt>
      <trkpt lat="44.2899" lon="1.61995">
        <ele>287.09</ele>
        <time>2023-04-24T12:26:51Z</time>
      </trkpt>
      <trkpt lat="44.28997" lon="1.61983">
        <ele>287.09</ele>
        <time>2023-04-24T12:27:00Z</time>
      </trkpt>
      <trkpt lat="44.29003" lon="1.61971">
        <ele>287.09</ele>
        <time>2023-04-24T12:27:09Z</time>
      </trkpt>
      <trkpt lat="44.29009" lon="1.61959">
        <ele>287.09</ele>
        <time>2023-04-24T12:27:19Z</time>
      </trkpt>
      <trkpt lat="44.29015" lon="1.61947">
        <ele>286.13</ele>
        <time>2023-04-24T12:27:29Z</time>
      </trkpt>
      <trkpt lat="44.2902" lon="1.61934">
        <ele>286.13</ele>
        <time>2023-04-24T12:27:39Z</time>
      </trkpt>
      <trkpt lat="44.29026" lon="1.61921">
        <ele>286.13</ele>
        <time>2023-04-24T12:27:50Z</time>
      </trkpt>
      <trkpt lat="44.29033" lon="1.61908">
        <ele>286.13</ele>
        <time>2023-04-24T12:28:02Z</time>
      </trkpt>
      <trkpt lat="44.29044" lon="1.61896">
        <ele>286.13</ele>
        <time>2023-04-24T12:28:50Z</time>
      </trkpt>
      <trkpt lat="44.29053" lon="1.61885">
        <ele>286.13</ele>
        <time>2023-04-24T12:29:03Z</time>
      </trkpt>
      <trkpt lat="44.29063" lon="1.61877">
        <ele>287.09</ele>
        <time>2023-04-24T12:29:18Z</time>
      </trkpt>
      <trkpt lat="44.2908" lon="1.61871">
        <ele>287.57</ele>
        <time>2023-04-24T12:29:34Z</time>
      </trkpt>
      <trkpt lat="44.29092" lon="1.61864">
        <ele>287.57</ele>
        <time>2023-04-24T12:29:45Z</time>
      </trkpt>
      <trkpt lat="44.29105" lon="1.61856">
        <ele>287.57</ele>
        <time>2023-04-24T12:29:55Z</time>
      </trkpt>
      <trkpt lat="44.29117" lon="1.6185">
        <ele>287.57</ele>
        <time>2023-04-24T12:30:06Z</time>
      </trkpt>
      <trkpt lat="44.29125" lon="1.61846">
        <ele>288.53</ele>
        <time>2023-04-24T12:30:36Z</time>
      </trkpt>
      <trkpt lat="44.29136" lon="1.61839">
        <ele>288.53</ele>
        <time>2023-04-24T12:30:51Z</time>
      </trkpt>
      <trkpt lat="44.29146" lon="1.6183">
        <ele>289.01</ele>
        <time>2023-04-24T12:31:08Z</time>
      </trkpt>
      <trkpt lat="44.2916" lon="1.61825">
        <ele>289.01</ele>
        <time>2023-04-24T12:31:34Z</time>
      </trkpt>
      <trkpt lat="44.29169" lon="1.61817">
        <ele>289.49</ele>
        <time>2023-04-24T12:31:44Z</time>
      </trkpt>
      <trkpt lat="44.29177" lon="1.61809">
        <ele>289.49</ele>
        <time>2023-04-24T12:31:55Z</time>
      </trkpt>
      <trkpt lat="44.29188" lon="1.61802">
        <ele>289.97</ele>
        <time>2023-04-24T12:32:05Z</time>
      </trkpt>
      <trkpt lat="44.29199" lon="1.61796">
        <ele>290.46</ele>
        <time>2023-04-24T12:32:14Z</time>
      </trkpt>
      <trkpt lat="44.2921" lon="1.6179">
        <ele>291.42</ele>
        <time>2023-04-24T12:32:23Z</time>
      </trkpt>
      <trkpt lat="44.29221" lon="1.61785">
        <ele>291.9</ele>
        <time>2023-04-24T12:32:33Z</time>
      </trkpt>
      <trkpt lat="44.29233" lon="1.61781">
        <ele>293.34</ele>
        <time>2023-04-24T12:32:43Z</time>
      </trkpt>
      <trkpt lat="44.29245" lon="1.61777">
        <ele>294.3</ele>
        <time>2023-04-24T12:32:53Z</time>
      </trkpt>
      <trkpt lat="44.29257" lon="1.61772">
        <ele>295.74</ele>
        <time>2023-04-24T12:33:03Z</time>
      </trkpt>
      <trkpt lat="44.29269" lon="1.61769">
        <ele>296.7</ele>
        <time>2023-04-24T12:33:13Z</time>
      </trkpt>
      <trkpt lat="44.29281" lon="1.61765">
        <ele>297.67</ele>
        <time>2023-04-24T12:33:23Z</time>
      </trkpt>
      <trkpt lat="44.29293" lon="1.61761">
        <ele>298.15</ele>
        <time>2023-04-24T12:33:33Z</time>
      </trkpt>
      <trkpt lat="44.29304" lon="1.61761">
        <ele>298.63</ele>
        <time>2023-04-24T12:33:41Z</time>
      </trkpt>
      <trkpt lat="44.29314" lon="1.61759">
        <ele>299.11</ele>
        <time>2023-04-24T12:33:49Z</time>
      </trkpt>
      <trkpt lat="44.29325" lon="1.61757">
        <ele>299.59</ele>
        <time>2023-04-24T12:33:57Z</time>
      </trkpt>
      <trkpt lat="44.29334" lon="1.61753">
        <ele>300.07</ele>
        <time>2023-04-24T12:34:05Z</time>
      </trkpt>
      <trkpt lat="44.29345" lon="1.61751">
        <ele>300.07</ele>
        <time>2023-04-24T12:34:14Z</time>
      </trkpt>
      <trkpt lat="44.29357" lon="1.61748">
        <ele>300.55</ele>
        <time>2023-04-24T12:34:23Z</time>
      </trkpt>
      <trkpt lat="44.29368" lon="1.61745">
        <ele>300.55</ele>
        <time>2023-04-24T12:34:32Z</time>
      </trkpt>
      <trkpt lat="44.2938" lon="1.61742">
        <ele>301.03</ele>
        <time>2023-04-24T12:34:41Z</time>
      </trkpt>
      <trkpt lat="44.29391" lon="1.6174">
        <ele>301.51</ele>
        <time>2023-04-24T12:34:49Z</time>
      </trkpt>
      <trkpt lat="44.29402" lon="1.61737">
        <ele>301.99</ele>
        <time>2023-04-24T12:34:57Z</time>
      </trkpt>
      <trkpt lat="44.29413" lon="1.61735">
        <ele>301.99</ele>
        <time>2023-04-24T12:35:06Z</time>
      </trkpt>
      <trkpt lat="44.29425" lon="1.61733">
        <ele>302.47</ele>
        <time>2023-04-24T12:35:15Z</time>
      </trkpt>
      <trkpt lat="44.29437" lon="1.61731">
        <ele>302.47</ele>
        <time>2023-04-24T12:35:24Z</time>
      </trkpt>
      <trkpt lat="44.29448" lon="1.61729">
        <ele>303.43</ele>
        <time>2023-04-24T12:35:32Z</time>
      </trkpt>
      <trkpt lat="44.29459" lon="1.61726">
        <ele>303.43</ele>
        <time>2023-04-24T12:35:40Z</time>
      </trkpt>
      <trkpt lat="44.2947" lon="1.61725">
        <ele>303.91</ele>
        <time>2023-04-24T12:35:48Z</time>
      </trkpt>
      <trkpt lat="44.29481" lon="1.61723">
        <ele>304.39</ele>
        <time>2023-04-24T12:35:56Z</time>
      </trkpt>
      <trkpt lat="44.29492" lon="1.61721">
        <ele>305.36</ele>
        <time>2023-04-24T12:36:04Z</time>
      </trkpt>
      <trkpt lat="44.29503" lon="1.61718">
        <ele>306.32</ele>
        <time>2023-04-24T12:36:14Z</time>
      </trkpt>
      <trkpt lat="44.29514" lon="1.61715">
        <ele>307.28</ele>
        <time>2023-04-24T12:36:23Z</time>
      </trkpt>
      <trkpt lat="44.29524" lon="1.61711">
        <ele>308.24</ele>
        <time>2023-04-24T12:36:32Z</time>
      </trkpt>
      <trkpt lat="44.29535" lon="1.61708">
        <ele>308.72</ele>
        <time>2023-04-24T12:36:42Z</time>
      </trkpt>
      <trkpt lat="44.29546" lon="1.61704">
        <ele>308.72</ele>
        <time>2023-04-24T12:36:52Z</time>
      </trkpt>
      <trkpt lat="44.29557" lon="1.61701">
        <ele>308.72</ele>
        <time>2023-04-24T12:37:01Z</time>
      </trkpt>
      <trkpt lat="44.29566" lon="1.61698">
        <ele>308.72</ele>
        <time>2023-04-24T12:37:08Z</time>
      </trkpt>
      <trkpt lat="44.29577" lon="1.61694">
        <ele>309.68</ele>
        <time>2023-04-24T12:37:17Z</time>
      </trkpt>
      <trkpt lat="44.29588" lon="1.6169">
        <ele>309.68</ele>
        <time>2023-04-24T12:37:27Z</time>
      </trkpt>
      <trkpt lat="44.29598" lon="1.61688">
        <ele>309.68</ele>
        <time>2023-04-24T12:37:36Z</time>
      </trkpt>
      <trkpt lat="44.29609" lon="1.61685">
        <ele>309.68</ele>
        <time>2023-04-24T12:37:45Z</time>
      </trkpt>
      <trkpt lat="44.2962" lon="1.61683">
        <ele>309.68</ele>
        <time>2023-04-24T12:37:55Z</time>
      </trkpt>
      <trkpt lat="44.29632" lon="1.61678">
        <ele>310.16</ele>
        <time>2023-04-24T12:38:09Z</time>
      </trkpt>
      <trkpt lat="44.29641" lon="1.61677">
        <ele>310.16</ele>
        <time>2023-04-24T12:38:17Z</time>
      </trkpt>
      <trkpt lat="44.29651" lon="1.61675">
        <ele>310.16</ele>
        <time>2023-04-24T12:38:25Z</time>
      </trkpt>
      <trkpt lat="44.29661" lon="1.61673">
        <ele>310.16</ele>
        <time>2023-04-24T12:38:33Z</time>
      </trkpt>
      <trkpt lat="44.29671" lon="1.61672">
        <ele>310.16</ele>
        <time>2023-04-24T12:38:41Z</time>
      </trkpt>
      <trkpt lat="44.29682" lon="1.61671">
        <ele>310.64</ele>
        <time>2023-04-24T12:38:51Z</time>
      </trkpt>
      <trkpt lat="44.29693" lon="1.61672">
        <ele>311.12</ele>
        <time>2023-04-24T12:39:00Z</time>
      </trkpt>
      <trkpt lat="44.29704" lon="1.61673">
        <ele>311.12</ele>
        <time>2023-04-24T12:39:10Z</time>
      </trkpt>
      <trkpt lat="44.29715" lon="1.61673">
        <ele>311.12</ele>
        <time>2023-04-24T12:39:19Z</time>
      </trkpt>
      <trkpt lat="44.29727" lon="1.61672">
        <ele>311.6</ele>
        <time>2023-04-24T12:39:28Z</time>
      </trkpt>
      <trkpt lat="44.29737" lon="1.61674">
        <ele>312.57</ele>
        <time>2023-04-24T12:39:37Z</time>
      </trkpt>
      <trkpt lat="44.29747" lon="1.61676">
        <ele>312.57</ele>
        <time>2023-04-24T12:39:47Z</time>
      </trkpt>
      <trkpt lat="44.29757" lon="1.61676">
        <ele>312.57</ele>
        <time>2023-04-24T12:39:57Z</time>
      </trkpt>
      <trkpt lat="44.29764" lon="1.61673">
        <ele>313.05</ele>
        <time>2023-04-24T12:40:18Z</time>
      </trkpt>
      <trkpt lat="44.29765" lon="1.61681">
        <ele>313.53</ele>
        <time>2023-04-24T12:42:46Z</time>
      </trkpt>
      <trkpt lat="44.29772" lon="1.61683">
        <ele>313.53</ele>
        <time>2023-04-24T12:43:15Z</time>
      </trkpt>
      <trkpt lat="44.29781" lon="1.61688">
        <ele>313.53</ele>
        <time>2023-04-24T12:43:24Z</time>
      </trkpt>
      <trkpt lat="44.2979" lon="1.61691">
        <ele>314.01</ele>
        <time>2023-04-24T12:43:34Z</time>
      </trkpt>
      <trkpt lat="44.29799" lon="1.61698">
        <ele>313.53</ele>
        <time>2023-04-24T12:43:44Z</time>
      </trkpt>
      <trkpt lat="44.29809" lon="1.61704">
        <ele>313.53</ele>
        <time>2023-04-24T12:43:54Z</time>
      </trkpt>
      <trkpt lat="44.29818" lon="1.61711">
        <ele>313.53</ele>
        <time>2023-04-24T12:44:03Z</time>
      </trkpt>
      <trkpt lat="44.29829" lon="1.61718">
        <ele>313.53</ele>
        <time>2023-04-24T12:44:12Z</time>
      </trkpt>
      <trkpt lat="44.29838" lon="1.61723">
        <ele>313.53</ele>
        <time>2023-04-24T12:44:20Z</time>
      </trkpt>
      <trkpt lat="44.29848" lon="1.61729">
        <ele>313.53</ele>
        <time>2023-04-24T12:44:29Z</time>
      </trkpt>
      <trkpt lat="44.29857" lon="1.61734">
        <ele>313.53</ele>
        <time>2023-04-24T12:44:37Z</time>
      </trkpt>
      <trkpt lat="44.29866" lon="1.61739">
        <ele>312.57</ele>
        <time>2023-04-24T12:44:45Z</time>
      </trkpt>
      <trkpt lat="44.29875" lon="1.61744">
        <ele>312.09</ele>
        <time>2023-04-24T12:44:53Z</time>
      </trkpt>
      <trkpt lat="44.29884" lon="1.61747">
        <ele>311.12</ele>
        <time>2023-04-24T12:45:01Z</time>
      </trkpt>
      <trkpt lat="44.29895" lon="1.61749">
        <ele>311.12</ele>
        <time>2023-04-24T12:45:09Z</time>
      </trkpt>
      <trkpt lat="44.29906" lon="1.61751">
        <ele>311.12</ele>
        <time>2023-04-24T12:45:17Z</time>
      </trkpt>
      <trkpt lat="44.29916" lon="1.61751">
        <ele>311.12</ele>
        <time>2023-04-24T12:45:25Z</time>
      </trkpt>
      <trkpt lat="44.29926" lon="1.61751">
        <ele>311.12</ele>
        <time>2023-04-24T12:45:33Z</time>
      </trkpt>
      <trkpt lat="44.29936" lon="1.6175">
        <ele>311.12</ele>
        <time>2023-04-24T12:45:43Z</time>
      </trkpt>
      <trkpt lat="44.29945" lon="1.61749">
        <ele>310.64</ele>
        <time>2023-04-24T12:45:51Z</time>
      </trkpt>
      <trkpt lat="44.29955" lon="1.61748">
        <ele>310.64</ele>
        <time>2023-04-24T12:45:59Z</time>
      </trkpt>
      <trkpt lat="44.29965" lon="1.61748">
        <ele>310.16</ele>
        <time>2023-04-24T12:46:08Z</time>
      </trkpt>
      <trkpt lat="44.29975" lon="1.61747">
        <ele>310.16</ele>
        <time>2023-04-24T12:46:17Z</time>
      </trkpt>
      <trkpt lat="44.29986" lon="1.61746">
        <ele>310.16</ele>
        <time>2023-04-24T12:46:25Z</time>
      </trkpt>
      <trkpt lat="44.29995" lon="1.61744">
        <ele>309.68</ele>
        <time>2023-04-24T12:46:33Z</time>
      </trkpt>
      <trkpt lat="44.30004" lon="1.61738">
        <ele>309.68</ele>
        <time>2023-04-24T12:46:42Z</time>
      </trkpt>
      <trkpt lat="44.30012" lon="1.6173">
        <ele>310.64</ele>
        <time>2023-04-24T12:46:51Z</time>
      </trkpt>
      <trkpt lat="44.30019" lon="1.61722">
        <ele>310.64</ele>
        <time>2023-04-24T12:46:59Z</time>
      </trkpt>
      <trkpt lat="44.30028" lon="1.61715">
        <ele>310.64</ele>
        <time>2023-04-24T12:47:08Z</time>
      </trkpt>
      <trkpt lat="44.30037" lon="1.6171">
        <ele>310.64</ele>
        <time>2023-04-24T12:47:16Z</time>
      </trkpt>
      <trkpt lat="44.30047" lon="1.61703">
        <ele>310.64</ele>
        <time>2023-04-24T12:47:25Z</time>
      </trkpt>
      <trkpt lat="44.30056" lon="1.61697">
        <ele>310.64</ele>
        <time>2023-04-24T12:47:34Z</time>
      </trkpt>
      <trkpt lat="44.30064" lon="1.6169">
        <ele>310.64</ele>
        <time>2023-04-24T12:47:43Z</time>
      </trkpt>
      <trkpt lat="44.30073" lon="1.61682">
        <ele>310.64</ele>
        <time>2023-04-24T12:47:52Z</time>
      </trkpt>
      <trkpt lat="44.30082" lon="1.61675">
        <ele>310.64</ele>
        <time>2023-04-24T12:48:01Z</time>
      </trkpt>
      <trkpt lat="44.3009" lon="1.61668">
        <ele>310.64</ele>
        <time>2023-04-24T12:48:10Z</time>
      </trkpt>
      <trkpt lat="44.30098" lon="1.61662">
        <ele>309.2</ele>
        <time>2023-04-24T12:48:18Z</time>
      </trkpt>
      <trkpt lat="44.30108" lon="1.61656">
        <ele>309.2</ele>
        <time>2023-04-24T12:48:26Z</time>
      </trkpt>
      <trkpt lat="44.30116" lon="1.6165">
        <ele>309.2</ele>
        <time>2023-04-24T12:48:34Z</time>
      </trkpt>
      <trkpt lat="44.30125" lon="1.61645">
        <ele>309.2</ele>
        <time>2023-04-24T12:48:42Z</time>
      </trkpt>
      <trkpt lat="44.30134" lon="1.6164">
        <ele>309.2</ele>
        <time>2023-04-24T12:48:51Z</time>
      </trkpt>
      <trkpt lat="44.30143" lon="1.61635">
        <ele>309.2</ele>
        <time>2023-04-24T12:48:59Z</time>
      </trkpt>
      <trkpt lat="44.30151" lon="1.61631">
        <ele>309.2</ele>
        <time>2023-04-24T12:49:07Z</time>
      </trkpt>
      <trkpt lat="44.3016" lon="1.61627">
        <ele>308.72</ele>
        <time>2023-04-24T12:49:15Z</time>
      </trkpt>
      <trkpt lat="44.30169" lon="1.61622">
        <ele>308.24</ele>
        <time>2023-04-24T12:49:24Z</time>
      </trkpt>
      <trkpt lat="44.30178" lon="1.61617">
        <ele>308.24</ele>
        <time>2023-04-24T12:49:32Z</time>
      </trkpt>
      <trkpt lat="44.30188" lon="1.61614">
        <ele>307.76</ele>
        <time>2023-04-24T12:49:40Z</time>
      </trkpt>
      <trkpt lat="44.30198" lon="1.61611">
        <ele>307.28</ele>
        <time>2023-04-24T12:49:48Z</time>
      </trkpt>
      <trkpt lat="44.30208" lon="1.61607">
        <ele>307.28</ele>
        <time>2023-04-24T12:49:56Z</time>
      </trkpt>
      <trkpt lat="44.30216" lon="1.61602">
        <ele>306.8</ele>
        <time>2023-04-24T12:50:04Z</time>
      </trkpt>
      <trkpt lat="44.30224" lon="1.61597">
        <ele>306.8</ele>
        <time>2023-04-24T12:50:13Z</time>
      </trkpt>
      <trkpt lat="44.30232" lon="1.61592">
        <ele>306.32</ele>
        <time>2023-04-24T12:50:21Z</time>
      </trkpt>
      <trkpt lat="44.30241" lon="1.61586">
        <ele>305.84</ele>
        <time>2023-04-24T12:50:31Z</time>
      </trkpt>
      <trkpt lat="44.3025" lon="1.61579">
        <ele>305.36</ele>
        <time>2023-04-24T12:50:38Z</time>
      </trkpt>
      <trkpt lat="44.30258" lon="1.61572">
        <ele>305.36</ele>
        <time>2023-04-24T12:50:45Z</time>
      </trkpt>
      <trkpt lat="44.30266" lon="1.61565">
        <ele>304.88</ele>
        <time>2023-04-24T12:50:52Z</time>
      </trkpt>
      <trkpt lat="44.30275" lon="1.61557">
        <ele>304.88</ele>
        <time>2023-04-24T12:51:00Z</time>
      </trkpt>
      <trkpt lat="44.30283" lon="1.61549">
        <ele>304.88</ele>
        <time>2023-04-24T12:51:08Z</time>
      </trkpt>
      <trkpt lat="44.30291" lon="1.61542">
        <ele>304.39</ele>
        <time>2023-04-24T12:51:16Z</time>
      </trkpt>
      <trkpt lat="44.30298" lon="1.61535">
        <ele>303.91</ele>
        <time>2023-04-24T12:51:24Z</time>
      </trkpt>
      <trkpt lat="44.30306" lon="1.61527">
        <ele>304.88</ele>
        <time>2023-04-24T12:51:32Z</time>
      </trkpt>
      <trkpt lat="44.30315" lon="1.6152">
        <ele>304.88</ele>
        <time>2023-04-24T12:51:40Z</time>
      </trkpt>
      <trkpt lat="44.30324" lon="1.61514">
        <ele>304.88</ele>
        <time>2023-04-24T12:51:48Z</time>
      </trkpt>
      <trkpt lat="44.30333" lon="1.61508">
        <ele>304.88</ele>
        <time>2023-04-24T12:51:56Z</time>
      </trkpt>
      <trkpt lat="44.30341" lon="1.61501">
        <ele>304.88</ele>
        <time>2023-04-24T12:52:04Z</time>
      </trkpt>
      <trkpt lat="44.30349" lon="1.61493">
        <ele>304.88</ele>
        <time>2023-04-24T12:52:13Z</time>
      </trkpt>
      <trkpt lat="44.30357" lon="1.61486">
        <ele>304.88</ele>
        <time>2023-04-24T12:52:21Z</time>
      </trkpt>
      <trkpt lat="44.30364" lon="1.61479">
        <ele>304.88</ele>
        <time>2023-04-24T12:52:29Z</time>
      </trkpt>
      <trkpt lat="44.30373" lon="1.61472">
        <ele>303.91</ele>
        <time>2023-04-24T12:52:37Z</time>
      </trkpt>
      <trkpt lat="44.30381" lon="1.61465">
        <ele>303.43</ele>
        <time>2023-04-24T12:52:45Z</time>
      </trkpt>
      <trkpt lat="44.3039" lon="1.61458">
        <ele>303.43</ele>
        <time>2023-04-24T12:52:53Z</time>
      </trkpt>
      <trkpt lat="44.30397" lon="1.61449">
        <ele>303.43</ele>
        <time>2023-04-24T12:53:01Z</time>
      </trkpt>
      <trkpt lat="44.30406" lon="1.6144">
        <ele>303.43</ele>
        <time>2023-04-24T12:53:09Z</time>
      </trkpt>
      <trkpt lat="44.30414" lon="1.61433">
        <ele>302.95</ele>
        <time>2023-04-24T12:53:17Z</time>
      </trkpt>
      <trkpt lat="44.30422" lon="1.61426">
        <ele>302.95</ele>
        <time>2023-04-24T12:53:25Z</time>
      </trkpt>
      <trkpt lat="44.3043" lon="1.61419">
        <ele>302.95</ele>
        <time>2023-04-24T12:53:33Z</time>
      </trkpt>
      <trkpt lat="44.30439" lon="1.61414">
        <ele>302.95</ele>
        <time>2023-04-24T12:53:41Z</time>
      </trkpt>
      <trkpt lat="44.30449" lon="1.61408">
        <ele>302.95</ele>
        <time>2023-04-24T12:53:50Z</time>
      </trkpt>
      <trkpt lat="44.30458" lon="1.61403">
        <ele>302.95</ele>
        <time>2023-04-24T12:53:59Z</time>
      </trkpt>
      <trkpt lat="44.30466" lon="1.61397">
        <ele>302.95</ele>
        <time>2023-04-24T12:54:07Z</time>
      </trkpt>
      <trkpt lat="44.30476" lon="1.61393">
        <ele>302.95</ele>
        <time>2023-04-24T12:54:15Z</time>
      </trkpt>
      <trkpt lat="44.30484" lon="1.61388">
        <ele>304.39</ele>
        <time>2023-04-24T12:54:23Z</time>
      </trkpt>
      <trkpt lat="44.30494" lon="1.61382">
        <ele>304.39</ele>
        <time>2023-04-24T12:54:33Z</time>
      </trkpt>
      <trkpt lat="44.30504" lon="1.61379">
        <ele>304.39</ele>
        <time>2023-04-24T12:54:42Z</time>
      </trkpt>
      <trkpt lat="44.30515" lon="1.61381">
        <ele>304.39</ele>
        <time>2023-04-24T12:54:52Z</time>
      </trkpt>
      <trkpt lat="44.30525" lon="1.61381">
        <ele>304.39</ele>
        <time>2023-04-24T12:55:02Z</time>
      </trkpt>
      <trkpt lat="44.30536" lon="1.61382">
        <ele>304.39</ele>
        <time>2023-04-24T12:55:11Z</time>
      </trkpt>
      <trkpt lat="44.30546" lon="1.61384">
        <ele>304.39</ele>
        <time>2023-04-24T12:55:20Z</time>
      </trkpt>
      <trkpt lat="44.30557" lon="1.61385">
        <ele>304.39</ele>
        <time>2023-04-24T12:55:30Z</time>
      </trkpt>
      <trkpt lat="44.30567" lon="1.61384">
        <ele>304.39</ele>
        <time>2023-04-24T12:55:39Z</time>
      </trkpt>
      <trkpt lat="44.30578" lon="1.61385">
        <ele>304.39</ele>
        <time>2023-04-24T12:55:48Z</time>
      </trkpt>
      <trkpt lat="44.30589" lon="1.61387">
        <ele>304.39</ele>
        <time>2023-04-24T12:55:57Z</time>
      </trkpt>
      <trkpt lat="44.306" lon="1.61388">
        <ele>304.39</ele>
        <time>2023-04-24T12:56:06Z</time>
      </trkpt>
      <trkpt lat="44.30611" lon="1.61391">
        <ele>304.88</ele>
        <time>2023-04-24T12:56:16Z</time>
      </trkpt>
      <trkpt lat="44.30621" lon="1.61395">
        <ele>304.88</ele>
        <time>2023-04-24T12:56:26Z</time>
      </trkpt>
      <trkpt lat="44.3063" lon="1.61397">
        <ele>304.88</ele>
        <time>2023-04-24T12:56:38Z</time>
      </trkpt>
      <trkpt lat="44.30639" lon="1.61399">
        <ele>304.88</ele>
        <time>2023-04-24T12:56:46Z</time>
      </trkpt>
      <trkpt lat="44.30648" lon="1.61399">
        <ele>304.88</ele>
        <time>2023-04-24T12:56:54Z</time>
      </trkpt>
      <trkpt lat="44.30657" lon="1.61401">
        <ele>304.88</ele>
        <time>2023-04-24T12:57:02Z</time>
      </trkpt>
      <trkpt lat="44.30668" lon="1.61402">
        <ele>304.88</ele>
        <time>2023-04-24T12:57:11Z</time>
      </trkpt>
      <trkpt lat="44.30678" lon="1.61403">
        <ele>305.36</ele>
        <time>2023-04-24T12:57:19Z</time>
      </trkpt>
      <trkpt lat="44.30688" lon="1.61405">
        <ele>305.36</ele>
        <time>2023-04-24T12:57:27Z</time>
      </trkpt>
      <trkpt lat="44.30697" lon="1.61405">
        <ele>305.36</ele>
        <time>2023-04-24T12:57:35Z</time>
      </trkpt>
      <trkpt lat="44.30707" lon="1.61405">
        <ele>305.36</ele>
        <time>2023-04-24T12:57:44Z</time>
      </trkpt>
      <trkpt lat="44.30717" lon="1.61405">
        <ele>305.84</ele>
        <time>2023-04-24T12:57:53Z</time>
      </trkpt>
      <trkpt lat="44.30726" lon="1.61404">
        <ele>305.36</ele>
        <time>2023-04-24T12:58:01Z</time>
      </trkpt>
      <trkpt lat="44.30735" lon="1.61405">
        <ele>305.84</ele>
        <time>2023-04-24T12:58:09Z</time>
      </trkpt>
      <trkpt lat="44.30745" lon="1.61404">
        <ele>304.39</ele>
        <time>2023-04-24T12:58:18Z</time>
      </trkpt>
      <trkpt lat="44.30754" lon="1.61405">
        <ele>304.39</ele>
        <time>2023-04-24T12:58:26Z</time>
      </trkpt>
      <trkpt lat="44.30763" lon="1.61404">
        <ele>305.84</ele>
        <time>2023-04-24T12:58:34Z</time>
      </trkpt>
      <trkpt lat="44.30773" lon="1.61404">
        <ele>304.88</ele>
        <time>2023-04-24T12:58:42Z</time>
      </trkpt>
      <trkpt lat="44.30782" lon="1.61403">
        <ele>306.32</ele>
        <time>2023-04-24T12:58:50Z</time>
      </trkpt>
      <trkpt lat="44.30792" lon="1.61403">
        <ele>306.32</ele>
        <time>2023-04-24T12:58:58Z</time>
      </trkpt>
      <trkpt lat="44.30802" lon="1.61402">
        <ele>304.88</ele>
        <time>2023-04-24T12:59:07Z</time>
      </trkpt>
      <trkpt lat="44.30812" lon="1.61403">
        <ele>304.88</ele>
        <time>2023-04-24T12:59:15Z</time>
      </trkpt>
      <trkpt lat="44.30822" lon="1.61402">
        <ele>304.88</ele>
        <time>2023-04-24T12:59:23Z</time>
      </trkpt>
      <trkpt lat="44.30831" lon="1.61402">
        <ele>305.84</ele>
        <time>2023-04-24T12:59:32Z</time>
      </trkpt>
      <trkpt lat="44.30841" lon="1.61401">
        <ele>306.32</ele>
        <time>2023-04-24T12:59:40Z</time>
      </trkpt>
      <trkpt lat="44.30851" lon="1.61402">
        <ele>306.32</ele>
        <time>2023-04-24T12:59:48Z</time>
      </trkpt>
      <trkpt lat="44.3086" lon="1.61401">
        <ele>306.8</ele>
        <time>2023-04-24T12:59:56Z</time>
      </trkpt>
      <trkpt lat="44.3087" lon="1.61401">
        <ele>306.8</ele>
        <time>2023-04-24T13:00:04Z</time>
      </trkpt>
      <trkpt lat="44.30879" lon="1.61401">
        <ele>307.76</ele>
        <time>2023-04-24T13:00:13Z</time>
      </trkpt>
      <trkpt lat="44.30889" lon="1.61402">
        <ele>307.76</ele>
        <time>2023-04-24T13:00:21Z</time>
      </trkpt>
      <trkpt lat="44.30899" lon="1.61402">
        <ele>308.24</ele>
        <time>2023-04-24T13:00:29Z</time>
      </trkpt>
      <trkpt lat="44.30909" lon="1.61402">
        <ele>308.24</ele>
        <time>2023-04-24T13:00:37Z</time>
      </trkpt>
      <trkpt lat="44.30918" lon="1.61403">
        <ele>308.24</ele>
        <time>2023-04-24T13:00:45Z</time>
      </trkpt>
      <trkpt lat="44.30928" lon="1.61404">
        <ele>308.24</ele>
        <time>2023-04-24T13:00:53Z</time>
      </trkpt>
      <trkpt lat="44.30938" lon="1.61404">
        <ele>308.24</ele>
        <time>2023-04-24T13:01:01Z</time>
      </trkpt>
      <trkpt lat="44.30948" lon="1.61405">
        <ele>308.24</ele>
        <time>2023-04-24T13:01:09Z</time>
      </trkpt>
      <trkpt lat="44.30958" lon="1.61406">
        <ele>308.24</ele>
        <time>2023-04-24T13:01:17Z</time>
      </trkpt>
      <trkpt lat="44.30968" lon="1.61407">
        <ele>308.72</ele>
        <time>2023-04-24T13:01:25Z</time>
      </trkpt>
      <trkpt lat="44.30978" lon="1.61408">
        <ele>308.72</ele>
        <time>2023-04-24T13:01:34Z</time>
      </trkpt>
      <trkpt lat="44.30988" lon="1.61409">
        <ele>308.72</ele>
        <time>2023-04-24T13:01:43Z</time>
      </trkpt>
      <trkpt lat="44.30997" lon="1.6141">
        <ele>308.72</ele>
        <time>2023-04-24T13:01:52Z</time>
      </trkpt>
      <trkpt lat="44.31007" lon="1.61411">
        <ele>308.72</ele>
        <time>2023-04-24T13:02:00Z</time>
      </trkpt>
      <trkpt lat="44.31015" lon="1.61412">
        <ele>308.72</ele>
        <time>2023-04-24T13:02:08Z</time>
      </trkpt>
      <trkpt lat="44.31024" lon="1.61411">
        <ele>308.72</ele>
        <time>2023-04-24T13:02:16Z</time>
      </trkpt>
      <trkpt lat="44.31034" lon="1.61409">
        <ele>308.72</ele>
        <time>2023-04-24T13:02:28Z</time>
      </trkpt>
      <trkpt lat="44.31044" lon="1.61408">
        <ele>308.72</ele>
        <time>2023-04-24T13:02:38Z</time>
      </trkpt>
      <trkpt lat="44.31054" lon="1.61407">
        <ele>308.72</ele>
        <time>2023-04-24T13:02:46Z</time>
      </trkpt>
      <trkpt lat="44.31063" lon="1.61406">
        <ele>308.72</ele>
        <time>2023-04-24T13:02:54Z</time>
      </trkpt>
      <trkpt lat="44.31072" lon="1.61404">
        <ele>308.72</ele>
        <time>2023-04-24T13:03:02Z</time>
      </trkpt>
      <trkpt lat="44.31081" lon="1.61403">
        <ele>309.2</ele>
        <time>2023-04-24T13:03:10Z</time>
      </trkpt>
      <trkpt lat="44.3109" lon="1.61402">
        <ele>309.2</ele>
        <time>2023-04-24T13:03:17Z</time>
      </trkpt>
      <trkpt lat="44.311" lon="1.614">
        <ele>309.68</ele>
        <time>2023-04-24T13:03:27Z</time>
      </trkpt>
      <trkpt lat="44.31109" lon="1.61398">
        <ele>309.68</ele>
        <time>2023-04-24T13:03:34Z</time>
      </trkpt>
      <trkpt lat="44.31119" lon="1.61395">
        <ele>309.68</ele>
        <time>2023-04-24T13:03:42Z</time>
      </trkpt>
      <trkpt lat="44.31129" lon="1.61393">
        <ele>309.68</ele>
        <time>2023-04-24T13:03:50Z</time>
      </trkpt>
      <trkpt lat="44.31139" lon="1.61391">
        <ele>309.68</ele>
        <time>2023-04-24T13:03:58Z</time>
      </trkpt>
      <trkpt lat="44.31148" lon="1.6139">
        <ele>309.68</ele>
        <time>2023-04-24T13:04:06Z</time>
      </trkpt>
      <trkpt lat="44.31158" lon="1.61388">
        <ele>309.68</ele>
        <time>2023-04-24T13:04:14Z</time>
      </trkpt>
      <trkpt lat="44.31167" lon="1.61386">
        <ele>309.68</ele>
        <time>2023-04-24T13:04:23Z</time>
      </trkpt>
      <trkpt lat="44.31176" lon="1.61392">
        <ele>309.68</ele>
        <time>2023-04-24T13:04:32Z</time>
      </trkpt>
      <trkpt lat="44.31176" lon="1.61406">
        <ele>309.68</ele>
        <time>2023-04-24T13:04:40Z</time>
      </trkpt>
      <trkpt lat="44.31171" lon="1.61418">
        <ele>309.68</ele>
        <time>2023-04-24T13:04:49Z</time>
      </trkpt>
      <trkpt lat="44.31166" lon="1.6143">
        <ele>309.68</ele>
        <time>2023-04-24T13:04:57Z</time>
      </trkpt>
      <trkpt lat="44.31161" lon="1.61442">
        <ele>309.68</ele>
        <time>2023-04-24T13:05:05Z</time>
      </trkpt>
      <trkpt lat="44.31157" lon="1.61454">
        <ele>309.68</ele>
        <time>2023-04-24T13:05:13Z</time>
      </trkpt>
      <trkpt lat="44.31154" lon="1.61466">
        <ele>309.68</ele>
        <time>2023-04-24T13:05:21Z</time>
      </trkpt>
      <trkpt lat="44.31151" lon="1.61479">
        <ele>309.68</ele>
        <time>2023-04-24T13:05:29Z</time>
      </trkpt>
      <trkpt lat="44.31149" lon="1.61492">
        <ele>309.68</ele>
        <time>2023-04-24T13:05:37Z</time>
      </trkpt>
      <trkpt lat="44.31148" lon="1.61505">
        <ele>309.68</ele>
        <time>2023-04-24T13:05:45Z</time>
      </trkpt>
      <trkpt lat="44.31148" lon="1.61519">
        <ele>309.68</ele>
        <time>2023-04-24T13:05:54Z</time>
      </trkpt>
      <trkpt lat="44.31147" lon="1.61532">
        <ele>309.68</ele>
        <time>2023-04-24T13:06:03Z</time>
      </trkpt>
      <trkpt lat="44.31142" lon="1.6154">
        <ele>310.16</ele>
        <time>2023-04-24T13:06:22Z</time>
      </trkpt>
      <trkpt lat="44.31145" lon="1.61549">
        <ele>310.16</ele>
        <time>2023-04-24T13:06:32Z</time>
      </trkpt>
      <trkpt lat="44.31145" lon="1.61556">
        <ele>308.72</ele>
        <time>2023-04-24T13:06:52Z</time>
      </trkpt>
      <trkpt lat="44.31146" lon="1.61571">
        <ele>309.68</ele>
        <time>2023-04-24T13:07:02Z</time>
      </trkpt>
      <trkpt lat="44.31145" lon="1.61585">
        <ele>309.68</ele>
        <time>2023-04-24T13:07:11Z</time>
      </trkpt>
      <trkpt lat="44.31145" lon="1.61598">
        <ele>309.68</ele>
        <time>2023-04-24T13:07:19Z</time>
      </trkpt>
      <trkpt lat="44.31145" lon="1.61611">
        <ele>309.68</ele>
        <time>2023-04-24T13:07:27Z</time>
      </trkpt>
      <trkpt lat="44.31145" lon="1.61625">
        <ele>309.68</ele>
        <time>2023-04-24T13:07:36Z</time>
      </trkpt>
      <trkpt lat="44.31144" lon="1.61638">
        <ele>309.68</ele>
        <time>2023-04-24T13:07:44Z</time>
      </trkpt>
      <trkpt lat="44.31144" lon="1.61651">
        <ele>308.72</ele>
        <time>2023-04-24T13:07:52Z</time>
      </trkpt>
      <trkpt lat="44.31144" lon="1.61664">
        <ele>308.72</ele>
        <time>2023-04-24T13:08:00Z</time>
      </trkpt>
      <trkpt lat="44.31144" lon="1.61678">
        <ele>308.72</ele>
        <time>2023-04-24T13:08:08Z</time>
      </trkpt>
      <trkpt lat="44.31143" lon="1.61691">
        <ele>308.72</ele>
        <time>2023-04-24T13:08:16Z</time>
      </trkpt>
      <trkpt lat="44.31141" lon="1.61705">
        <ele>308.72</ele>
        <time>2023-04-24T13:08:24Z</time>
      </trkpt>
      <trkpt lat="44.3114" lon="1.6172">
        <ele>308.72</ele>
        <time>2023-04-24T13:08:33Z</time>
      </trkpt>
      <trkpt lat="44.31141" lon="1.61733">
        <ele>308.72</ele>
        <time>2023-04-24T13:08:41Z</time>
      </trkpt>
      <trkpt lat="44.31143" lon="1.61745">
        <ele>308.72</ele>
        <time>2023-04-24T13:08:49Z</time>
      </trkpt>
      <trkpt lat="44.31146" lon="1.6176">
        <ele>308.72</ele>
        <time>2023-04-24T13:08:58Z</time>
      </trkpt>
      <trkpt lat="44.31148" lon="1.61774">
        <ele>308.72</ele>
        <time>2023-04-24T13:09:07Z</time>
      </trkpt>
      <trkpt lat="44.31152" lon="1.61787">
        <ele>310.16</ele>
        <time>2023-04-24T13:09:16Z</time>
      </trkpt>
      <trkpt lat="44.31155" lon="1.618">
        <ele>310.16</ele>
        <time>2023-04-24T13:09:24Z</time>
      </trkpt>
      <trkpt lat="44.31157" lon="1.61814">
        <ele>310.16</ele>
        <time>2023-04-24T13:09:33Z</time>
      </trkpt>
      <trkpt lat="44.31159" lon="1.61828">
        <ele>310.64</ele>
        <time>2023-04-24T13:09:42Z</time>
      </trkpt>
      <trkpt lat="44.31161" lon="1.61842">
        <ele>311.12</ele>
        <time>2023-04-24T13:09:51Z</time>
      </trkpt>
      <trkpt lat="44.31164" lon="1.61856">
        <ele>311.12</ele>
        <time>2023-04-24T13:10:00Z</time>
      </trkpt>
      <trkpt lat="44.31166" lon="1.61871">
        <ele>310.64</ele>
        <time>2023-04-24T13:10:09Z</time>
      </trkpt>
      <trkpt lat="44.31168" lon="1.61884">
        <ele>311.12</ele>
        <time>2023-04-24T13:10:18Z</time>
      </trkpt>
      <trkpt lat="44.3117" lon="1.61898">
        <ele>311.12</ele>
        <time>2023-04-24T13:10:27Z</time>
      </trkpt>
      <trkpt lat="44.31173" lon="1.61912">
        <ele>311.6</ele>
        <time>2023-04-24T13:10:36Z</time>
      </trkpt>
      <trkpt lat="44.31174" lon="1.61925">
        <ele>310.16</ele>
        <time>2023-04-24T13:10:45Z</time>
      </trkpt>
      <trkpt lat="44.31175" lon="1.6194">
        <ele>310.64</ele>
        <time>2023-04-24T13:10:54Z</time>
      </trkpt>
      <trkpt lat="44.31176" lon="1.61953">
        <ele>311.6</ele>
        <time>2023-04-24T13:11:03Z</time>
      </trkpt>
      <trkpt lat="44.31177" lon="1.61967">
        <ele>311.6</ele>
        <time>2023-04-24T13:11:12Z</time>
      </trkpt>
      <trkpt lat="44.31177" lon="1.61981">
        <ele>311.6</ele>
        <time>2023-04-24T13:11:20Z</time>
      </trkpt>
      <trkpt lat="44.31176" lon="1.61997">
        <ele>311.6</ele>
        <time>2023-04-24T13:11:29Z</time>
      </trkpt>
      <trkpt lat="44.31175" lon="1.62009">
        <ele>311.6</ele>
        <time>2023-04-24T13:11:37Z</time>
      </trkpt>
      <trkpt lat="44.31174" lon="1.62022">
        <ele>311.6</ele>
        <time>2023-04-24T13:11:45Z</time>
      </trkpt>
      <trkpt lat="44.31173" lon="1.62036">
        <ele>311.6</ele>
        <time>2023-04-24T13:11:54Z</time>
      </trkpt>
      <trkpt lat="44.31172" lon="1.62049">
        <ele>310.64</ele>
        <time>2023-04-24T13:12:02Z</time>
      </trkpt>
      <trkpt lat="44.3117" lon="1.62063">
        <ele>310.64</ele>
        <time>2023-04-24T13:12:11Z</time>
      </trkpt>
      <trkpt lat="44.3117" lon="1.62076">
        <ele>310.64</ele>
        <time>2023-04-24T13:12:19Z</time>
      </trkpt>
      <trkpt lat="44.31169" lon="1.6209">
        <ele>310.64</ele>
        <time>2023-04-24T13:12:28Z</time>
      </trkpt>
      <trkpt lat="44.31167" lon="1.62102">
        <ele>310.64</ele>
        <time>2023-04-24T13:12:36Z</time>
      </trkpt>
      <trkpt lat="44.31166" lon="1.62115">
        <ele>310.64</ele>
        <time>2023-04-24T13:12:44Z</time>
      </trkpt>
      <trkpt lat="44.31165" lon="1.62128">
        <ele>310.64</ele>
        <time>2023-04-24T13:12:52Z</time>
      </trkpt>
      <trkpt lat="44.31163" lon="1.62142">
        <ele>310.64</ele>
        <time>2023-04-24T13:13:01Z</time>
      </trkpt>
      <trkpt lat="44.31162" lon="1.62155">
        <ele>310.64</ele>
        <time>2023-04-24T13:13:10Z</time>
      </trkpt>
      <trkpt lat="44.3116" lon="1.62169">
        <ele>310.64</ele>
        <time>2023-04-24T13:13:19Z</time>
      </trkpt>
      <trkpt lat="44.31159" lon="1.62181">
        <ele>311.12</ele>
        <time>2023-04-24T13:13:27Z</time>
      </trkpt>
      <trkpt lat="44.31157" lon="1.62196">
        <ele>311.12</ele>
        <time>2023-04-24T13:13:36Z</time>
      </trkpt>
      <trkpt lat="44.31156" lon="1.62211">
        <ele>311.12</ele>
        <time>2023-04-24T13:13:45Z</time>
      </trkpt>
      <trkpt lat="44.31156" lon="1.62223">
        <ele>311.12</ele>
        <time>2023-04-24T13:13:53Z</time>
      </trkpt>
      <trkpt lat="44.31156" lon="1.62237">
        <ele>311.12</ele>
        <time>2023-04-24T13:14:02Z</time>
      </trkpt>
      <trkpt lat="44.31156" lon="1.6225">
        <ele>311.12</ele>
        <time>2023-04-24T13:14:11Z</time>
      </trkpt>
      <trkpt lat="44.31156" lon="1.62264">
        <ele>311.12</ele>
        <time>2023-04-24T13:14:20Z</time>
      </trkpt>
      <trkpt lat="44.31156" lon="1.62277">
        <ele>311.12</ele>
        <time>2023-04-24T13:14:31Z</time>
      </trkpt>
      <trkpt lat="44.31156" lon="1.62291">
        <ele>311.12</ele>
        <time>2023-04-24T13:14:41Z</time>
      </trkpt>
      <trkpt lat="44.31156" lon="1.62305">
        <ele>311.12</ele>
        <time>2023-04-24T13:14:50Z</time>
      </trkpt>
      <trkpt lat="44.31154" lon="1.62318">
        <ele>311.12</ele>
        <time>2023-04-24T13:15:22Z</time>
      </trkpt>
      <trkpt lat="44.31154" lon="1.62333">
        <ele>311.12</ele>
        <time>2023-04-24T13:15:32Z</time>
      </trkpt>
      <trkpt lat="44.31152" lon="1.62348">
        <ele>311.12</ele>
        <time>2023-04-24T13:15:42Z</time>
      </trkpt>
      <trkpt lat="44.31151" lon="1.62363">
        <ele>310.64</ele>
        <time>2023-04-24T13:15:54Z</time>
      </trkpt>
      <trkpt lat="44.31151" lon="1.62375">
        <ele>310.64</ele>
        <time>2023-04-24T13:16:22Z</time>
      </trkpt>
      <trkpt lat="44.31148" lon="1.62389">
        <ele>310.64</ele>
        <time>2023-04-24T13:16:31Z</time>
      </trkpt>
      <trkpt lat="44.31143" lon="1.62402">
        <ele>310.64</ele>
        <time>2023-04-24T13:16:44Z</time>
      </trkpt>
      <trkpt lat="44.31139" lon="1.62414">
        <ele>310.64</ele>
        <time>2023-04-24T13:16:55Z</time>
      </trkpt>
      <trkpt lat="44.31133" lon="1.62426">
        <ele>312.09</ele>
        <time>2023-04-24T13:17:23Z</time>
      </trkpt>
      <trkpt lat="44.31128" lon="1.62438">
        <ele>312.09</ele>
        <time>2023-04-24T13:17:32Z</time>
      </trkpt>
      <trkpt lat="44.31123" lon="1.6245">
        <ele>311.6</ele>
        <time>2023-04-24T13:17:41Z</time>
      </trkpt>
      <trkpt lat="44.31118" lon="1.62464">
        <ele>311.6</ele>
        <time>2023-04-24T13:17:51Z</time>
      </trkpt>
      <trkpt lat="44.31112" lon="1.62479">
        <ele>311.6</ele>
        <time>2023-04-24T13:18:03Z</time>
      </trkpt>
      <trkpt lat="44.31107" lon="1.62493">
        <ele>311.6</ele>
        <time>2023-04-24T13:18:16Z</time>
      </trkpt>
      <trkpt lat="44.31101" lon="1.62507">
        <ele>312.09</ele>
        <time>2023-04-24T13:18:29Z</time>
      </trkpt>
      <trkpt lat="44.31096" lon="1.62522">
        <ele>312.09</ele>
        <time>2023-04-24T13:18:41Z</time>
      </trkpt>
      <trkpt lat="44.31092" lon="1.62537">
        <ele>312.09</ele>
        <time>2023-04-24T13:18:52Z</time>
      </trkpt>
      <trkpt lat="44.31089" lon="1.62552">
        <ele>310.64</ele>
        <time>2023-04-24T13:19:03Z</time>
      </trkpt>
      <trkpt lat="44.31086" lon="1.62567">
        <ele>310.16</ele>
        <time>2023-04-24T13:19:14Z</time>
      </trkpt>
      <trkpt lat="44.31082" lon="1.62581">
        <ele>309.68</ele>
        <time>2023-04-24T13:19:25Z</time>
      </trkpt>
      <trkpt lat="44.31078" lon="1.62594">
        <ele>308.72</ele>
        <time>2023-04-24T13:19:37Z</time>
      </trkpt>
      <trkpt lat="44.31075" lon="1.62607">
        <ele>307.76</ele>
        <time>2023-04-24T13:19:48Z</time>
      </trkpt>
      <trkpt lat="44.31071" lon="1.62621">
        <ele>306.32</ele>
        <time>2023-04-24T13:19:59Z</time>
      </trkpt>
      <trkpt lat="44.3107" lon="1.62634">
        <ele>305.36</ele>
        <time>2023-04-24T13:20:11Z</time>
      </trkpt>
      <trkpt lat="44.31067" lon="1.62648">
        <ele>304.88</ele>
        <time>2023-04-24T13:20:21Z</time>
      </trkpt>
      <trkpt lat="44.31064" lon="1.62664">
        <ele>303.91</ele>
        <time>2023-04-24T13:21:05Z</time>
      </trkpt>
      <trkpt lat="44.31062" lon="1.62678">
        <ele>302.95</ele>
        <time>2023-04-24T13:21:15Z</time>
      </trkpt>
      <trkpt lat="44.31059" lon="1.62693">
        <ele>302.47</ele>
        <time>2023-04-24T13:21:25Z</time>
      </trkpt>
      <trkpt lat="44.31056" lon="1.62707">
        <ele>302.47</ele>
        <time>2023-04-24T13:21:34Z</time>
      </trkpt>
      <trkpt lat="44.31054" lon="1.62722">
        <ele>301.51</ele>
        <time>2023-04-24T13:21:43Z</time>
      </trkpt>
      <trkpt lat="44.31053" lon="1.62737">
        <ele>301.03</ele>
        <time>2023-04-24T13:21:52Z</time>
      </trkpt>
      <trkpt lat="44.31053" lon="1.62751">
        <ele>300.55</ele>
        <time>2023-04-24T13:22:00Z</time>
      </trkpt>
      <trkpt lat="44.31051" lon="1.62766">
        <ele>300.55</ele>
        <time>2023-04-24T13:22:08Z</time>
      </trkpt>
      <trkpt lat="44.3105" lon="1.62781">
        <ele>300.07</ele>
        <time>2023-04-24T13:22:17Z</time>
      </trkpt>
      <trkpt lat="44.31048" lon="1.62795">
        <ele>299.59</ele>
        <time>2023-04-24T13:22:26Z</time>
      </trkpt>
      <trkpt lat="44.31047" lon="1.62809">
        <ele>299.11</ele>
        <time>2023-04-24T13:22:34Z</time>
      </trkpt>
      <trkpt lat="44.31046" lon="1.62824">
        <ele>299.11</ele>
        <time>2023-04-24T13:22:43Z</time>
      </trkpt>
      <trkpt lat="44.31045" lon="1.62839">
        <ele>299.11</ele>
        <time>2023-04-24T13:22:52Z</time>
      </trkpt>
      <trkpt lat="44.31044" lon="1.62854">
        <ele>299.11</ele>
        <time>2023-04-24T13:23:03Z</time>
      </trkpt>
      <trkpt lat="44.31043" lon="1.62867">
        <ele>298.63</ele>
        <time>2023-04-24T13:23:12Z</time>
      </trkpt>
      <trkpt lat="44.3104" lon="1.62879">
        <ele>298.63</ele>
        <time>2023-04-24T13:23:20Z</time>
      </trkpt>
      <trkpt lat="44.31035" lon="1.62891">
        <ele>298.15</ele>
        <time>2023-04-24T13:23:35Z</time>
      </trkpt>
      <trkpt lat="44.31032" lon="1.62903">
        <ele>297.18</ele>
        <time>2023-04-24T13:23:54Z</time>
      </trkpt>
      <trkpt lat="44.31029" lon="1.62916">
        <ele>297.18</ele>
        <time>2023-04-24T13:24:04Z</time>
      </trkpt>
      <trkpt lat="44.31025" lon="1.62929">
        <ele>296.7</ele>
        <time>2023-04-24T13:24:13Z</time>
      </trkpt>
      <trkpt lat="44.3102" lon="1.62942">
        <ele>296.7</ele>
        <time>2023-04-24T13:24:22Z</time>
      </trkpt>
      <trkpt lat="44.31015" lon="1.62956">
        <ele>296.22</ele>
        <time>2023-04-24T13:24:31Z</time>
      </trkpt>
      <trkpt lat="44.31011" lon="1.6297">
        <ele>295.74</ele>
        <time>2023-04-24T13:24:40Z</time>
      </trkpt>
      <trkpt lat="44.31006" lon="1.62983">
        <ele>295.74</ele>
        <time>2023-04-24T13:24:49Z</time>
      </trkpt>
      <trkpt lat="44.31001" lon="1.62997">
        <ele>295.26</ele>
        <time>2023-04-24T13:24:58Z</time>
      </trkpt>
      <trkpt lat="44.30996" lon="1.63009">
        <ele>295.26</ele>
        <time>2023-04-24T13:25:08Z</time>
      </trkpt>
      <trkpt lat="44.30991" lon="1.63022">
        <ele>295.26</ele>
        <time>2023-04-24T13:25:18Z</time>
      </trkpt>
      <trkpt lat="44.30986" lon="1.63035">
        <ele>294.78</ele>
        <time>2023-04-24T13:25:28Z</time>
      </trkpt>
      <trkpt lat="44.30981" lon="1.63048">
        <ele>294.78</ele>
        <time>2023-04-24T13:25:37Z</time>
      </trkpt>
      <trkpt lat="44.30976" lon="1.63061">
        <ele>294.3</ele>
        <time>2023-04-24T13:25:46Z</time>
      </trkpt>
      <trkpt lat="44.3097" lon="1.63073">
        <ele>294.3</ele>
        <time>2023-04-24T13:25:55Z</time>
      </trkpt>
      <trkpt lat="44.30965" lon="1.63086">
        <ele>294.3</ele>
        <time>2023-04-24T13:26:04Z</time>
      </trkpt>
      <trkpt lat="44.30959" lon="1.63098">
        <ele>294.3</ele>
        <time>2023-04-24T13:26:13Z</time>
      </trkpt>
      <trkpt lat="44.30953" lon="1.63111">
        <ele>294.3</ele>
        <time>2023-04-24T13:26:22Z</time>
      </trkpt>
      <trkpt lat="44.30947" lon="1.63124">
        <ele>294.3</ele>
        <time>2023-04-24T13:26:31Z</time>
      </trkpt>
      <trkpt lat="44.30942" lon="1.63138">
        <ele>294.3</ele>
        <time>2023-04-24T13:26:41Z</time>
      </trkpt>
      <trkpt lat="44.30937" lon="1.63151">
        <ele>294.3</ele>
        <time>2023-04-24T13:26:50Z</time>
      </trkpt>
      <trkpt lat="44.30931" lon="1.63163">
        <ele>294.3</ele>
        <time>2023-04-24T13:26:59Z</time>
      </trkpt>
      <trkpt lat="44.30925" lon="1.63176">
        <ele>294.3</ele>
        <time>2023-04-24T13:27:09Z</time>
      </trkpt>
      <trkpt lat="44.30919" lon="1.63188">
        <ele>294.3</ele>
        <time>2023-04-24T13:27:18Z</time>
      </trkpt>
      <trkpt lat="44.30914" lon="1.63201">
        <ele>294.3</ele>
        <time>2023-04-24T13:27:27Z</time>
      </trkpt>
      <trkpt lat="44.30909" lon="1.63215">
        <ele>294.3</ele>
        <time>2023-04-24T13:27:37Z</time>
      </trkpt>
      <trkpt lat="44.30904" lon="1.63229">
        <ele>295.26</ele>
        <time>2023-04-24T13:27:48Z</time>
      </trkpt>
      <trkpt lat="44.309" lon="1.63241">
        <ele>295.26</ele>
        <time>2023-04-24T13:28:00Z</time>
      </trkpt>
      <trkpt lat="44.30898" lon="1.63254">
        <ele>295.26</ele>
        <time>2023-04-24T13:28:23Z</time>
      </trkpt>
      <trkpt lat="44.30893" lon="1.6327">
        <ele>295.74</ele>
        <time>2023-04-24T13:28:36Z</time>
      </trkpt>
      <trkpt lat="44.30888" lon="1.63284">
        <ele>295.74</ele>
        <time>2023-04-24T13:29:03Z</time>
      </trkpt>
      <trkpt lat="44.30885" lon="1.63298">
        <ele>295.74</ele>
        <time>2023-04-24T13:29:18Z</time>
      </trkpt>
      <trkpt lat="44.30886" lon="1.63314">
        <ele>296.7</ele>
        <time>2023-04-24T13:29:29Z</time>
      </trkpt>
      <trkpt lat="44.30885" lon="1.63323">
        <ele>296.22</ele>
        <time>2023-04-24T13:30:23Z</time>
      </trkpt>
      <trkpt lat="44.30884" lon="1.63339">
        <ele>296.7</ele>
        <time>2023-04-24T13:30:30Z</time>
      </trkpt>
      <trkpt lat="44.30882" lon="1.63357">
        <ele>297.18</ele>
        <time>2023-04-24T13:30:38Z</time>
      </trkpt>
      <trkpt lat="44.30881" lon="1.63371">
        <ele>297.18</ele>
        <time>2023-04-24T13:30:45Z</time>
      </trkpt>
      <trkpt lat="44.3088" lon="1.63385">
        <ele>297.67</ele>
        <time>2023-04-24T13:30:52Z</time>
      </trkpt>
      <trkpt lat="44.30877" lon="1.63399">
        <ele>298.15</ele>
        <time>2023-04-24T13:30:59Z</time>
      </trkpt>
      <trkpt lat="44.30874" lon="1.63414">
        <ele>298.15</ele>
        <time>2023-04-24T13:31:07Z</time>
      </trkpt>
      <trkpt lat="44.3087" lon="1.63428">
        <ele>298.15</ele>
        <time>2023-04-24T13:31:14Z</time>
      </trkpt>
      <trkpt lat="44.30867" lon="1.63444">
        <ele>298.63</ele>
        <time>2023-04-24T13:31:22Z</time>
      </trkpt>
      <trkpt lat="44.30863" lon="1.63458">
        <ele>298.63</ele>
        <time>2023-04-24T13:31:29Z</time>
      </trkpt>
      <trkpt lat="44.30859" lon="1.63473">
        <ele>298.63</ele>
        <time>2023-04-24T13:31:37Z</time>
      </trkpt>
      <trkpt lat="44.30855" lon="1.63487">
        <ele>298.63</ele>
        <time>2023-04-24T13:31:44Z</time>
      </trkpt>
      <trkpt lat="44.30852" lon="1.63502">
        <ele>298.63</ele>
        <time>2023-04-24T13:31:52Z</time>
      </trkpt>
      <trkpt lat="44.30847" lon="1.63518">
        <ele>298.63</ele>
        <time>2023-04-24T13:32:00Z</time>
      </trkpt>
      <trkpt lat="44.30844" lon="1.63533">
        <ele>298.63</ele>
        <time>2023-04-24T13:32:08Z</time>
      </trkpt>
      <trkpt lat="44.30839" lon="1.63548">
        <ele>297.67</ele>
        <time>2023-04-24T13:32:16Z</time>
      </trkpt>
      <trkpt lat="44.30836" lon="1.63562">
        <ele>297.67</ele>
        <time>2023-04-24T13:32:23Z</time>
      </trkpt>
      <trkpt lat="44.30833" lon="1.63576">
        <ele>297.67</ele>
        <time>2023-04-24T13:32:31Z</time>
      </trkpt>
      <trkpt lat="44.30827" lon="1.6359">
        <ele>297.67</ele>
        <time>2023-04-24T13:32:40Z</time>
      </trkpt>
      <trkpt lat="44.30823" lon="1.63605">
        <ele>297.67</ele>
        <time>2023-04-24T13:32:49Z</time>
      </trkpt>
      <trkpt lat="44.30819" lon="1.6362">
        <ele>297.67</ele>
        <time>2023-04-24T13:32:58Z</time>
      </trkpt>
      <trkpt lat="44.30815" lon="1.63635">
        <ele>298.63</ele>
        <time>2023-04-24T13:33:07Z</time>
      </trkpt>
      <trkpt lat="44.30812" lon="1.63651">
        <ele>299.11</ele>
        <time>2023-04-24T13:33:17Z</time>
      </trkpt>
      <trkpt lat="44.30809" lon="1.63667">
        <ele>299.11</ele>
        <time>2023-04-24T13:33:26Z</time>
      </trkpt>
      <trkpt lat="44.30805" lon="1.63681">
        <ele>299.59</ele>
        <time>2023-04-24T13:33:35Z</time>
      </trkpt>
      <trkpt lat="44.30802" lon="1.63695">
        <ele>299.59</ele>
        <time>2023-04-24T13:33:44Z</time>
      </trkpt>
      <trkpt lat="44.30797" lon="1.63711">
        <ele>299.59</ele>
        <time>2023-04-24T13:33:53Z</time>
      </trkpt>
      <trkpt lat="44.30794" lon="1.63725">
        <ele>300.07</ele>
        <time>2023-04-24T13:34:02Z</time>
      </trkpt>
      <trkpt lat="44.30791" lon="1.63739">
        <ele>300.07</ele>
        <time>2023-04-24T13:34:12Z</time>
      </trkpt>
      <trkpt lat="44.30788" lon="1.63755">
        <ele>300.07</ele>
        <time>2023-04-24T13:34:24Z</time>
      </trkpt>
      <trkpt lat="44.30786" lon="1.63773">
        <ele>300.55</ele>
        <time>2023-04-24T13:34:35Z</time>
      </trkpt>
      <trkpt lat="44.30785" lon="1.6379">
        <ele>300.07</ele>
        <time>2023-04-24T13:34:45Z</time>
      </trkpt>
      <trkpt lat="44.30784" lon="1.63806">
        <ele>300.07</ele>
        <time>2023-04-24T13:34:55Z</time>
      </trkpt>
      <trkpt lat="44.30783" lon="1.63823">
        <ele>300.07</ele>
        <time>2023-04-24T13:35:05Z</time>
      </trkpt>
      <trkpt lat="44.30781" lon="1.63839">
        <ele>300.07</ele>
        <time>2023-04-24T13:35:14Z</time>
      </trkpt>
      <trkpt lat="44.30779" lon="1.63855">
        <ele>300.07</ele>
        <time>2023-04-24T13:35:23Z</time>
      </trkpt>
      <trkpt lat="44.30777" lon="1.63874">
        <ele>300.07</ele>
        <time>2023-04-24T13:35:35Z</time>
      </trkpt>
      <trkpt lat="44.30776" lon="1.63892">
        <ele>299.11</ele>
        <time>2023-04-24T13:35:45Z</time>
      </trkpt>
      <trkpt lat="44.30775" lon="1.6391">
        <ele>298.15</ele>
        <time>2023-04-24T13:35:55Z</time>
      </trkpt>
      <trkpt lat="44.30774" lon="1.63927">
        <ele>298.15</ele>
        <time>2023-04-24T13:36:05Z</time>
      </trkpt>
      <trkpt lat="44.30772" lon="1.63946">
        <ele>297.18</ele>
        <time>2023-04-24T13:36:16Z</time>
      </trkpt>
      <trkpt lat="44.30771" lon="1.63966">
        <ele>296.7</ele>
        <time>2023-04-24T13:36:28Z</time>
      </trkpt>
      <trkpt lat="44.3077" lon="1.63984">
        <ele>295.74</ele>
        <time>2023-04-24T13:36:38Z</time>
      </trkpt>
      <trkpt lat="44.30768" lon="1.64002">
        <ele>295.26</ele>
        <time>2023-04-24T13:36:50Z</time>
      </trkpt>
      <trkpt lat="44.30767" lon="1.64022">
        <ele>294.78</ele>
        <time>2023-04-24T13:37:01Z</time>
      </trkpt>
      <trkpt lat="44.30766" lon="1.64042">
        <ele>293.82</ele>
        <time>2023-04-24T13:37:14Z</time>
      </trkpt>
      <trkpt lat="44.30764" lon="1.64063">
        <ele>293.34</ele>
        <time>2023-04-24T13:37:26Z</time>
      </trkpt>
      <trkpt lat="44.30762" lon="1.64081">
        <ele>293.34</ele>
        <time>2023-04-24T13:37:37Z</time>
      </trkpt>
      <trkpt lat="44.3076" lon="1.641">
        <ele>293.34</ele>
        <time>2023-04-24T13:37:50Z</time>
      </trkpt>
      <trkpt lat="44.30759" lon="1.64119">
        <ele>293.34</ele>
        <time>2023-04-24T13:38:01Z</time>
      </trkpt>
      <trkpt lat="44.30758" lon="1.64138">
        <ele>293.34</ele>
        <time>2023-04-24T13:38:12Z</time>
      </trkpt>
      <trkpt lat="44.30755" lon="1.64156">
        <ele>292.86</ele>
        <time>2023-04-24T13:38:25Z</time>
      </trkpt>
      <trkpt lat="44.30752" lon="1.64175">
        <ele>294.3</ele>
        <time>2023-04-24T13:38:37Z</time>
      </trkpt>
      <trkpt lat="44.30747" lon="1.64194">
        <ele>294.78</ele>
        <time>2023-04-24T13:38:50Z</time>
      </trkpt>
      <trkpt lat="44.3074" lon="1.6421">
        <ele>294.78</ele>
        <time>2023-04-24T13:39:02Z</time>
      </trkpt>
      <trkpt lat="44.30731" lon="1.64224">
        <ele>294.78</ele>
        <time>2023-04-24T13:39:14Z</time>
      </trkpt>
      <trkpt lat="44.30721" lon="1.64223">
        <ele>294.78</ele>
        <time>2023-04-24T13:39:49Z</time>
      </trkpt>
      <trkpt lat="44.30716" lon="1.6421">
        <ele>294.78</ele>
        <time>2023-04-24T13:39:59Z</time>
      </trkpt>
      <trkpt lat="44.3071" lon="1.64199">
        <ele>293.82</ele>
        <time>2023-04-24T13:40:08Z</time>
      </trkpt>
      <trkpt lat="44.30703" lon="1.64187">
        <ele>293.34</ele>
        <time>2023-04-24T13:40:18Z</time>
      </trkpt>
      <trkpt lat="44.30694" lon="1.64175">
        <ele>292.86</ele>
        <time>2023-04-24T13:40:27Z</time>
      </trkpt>
      <trkpt lat="44.30685" lon="1.64168">
        <ele>292.38</ele>
        <time>2023-04-24T13:40:35Z</time>
      </trkpt>
      <trkpt lat="44.30677" lon="1.64157">
        <ele>291.42</ele>
        <time>2023-04-24T13:40:43Z</time>
      </trkpt>
      <trkpt lat="44.30672" lon="1.64148">
        <ele>290.94</ele>
        <time>2023-04-24T13:41:15Z</time>
      </trkpt>
      <trkpt lat="44.30666" lon="1.64135">
        <ele>289.97</ele>
        <time>2023-04-24T13:41:26Z</time>
      </trkpt>
      <trkpt lat="44.30652" lon="1.64122">
        <ele>288.05</ele>
        <time>2023-04-24T13:41:45Z</time>
      </trkpt>
      <trkpt lat="44.30642" lon="1.64112">
        <ele>287.57</ele>
        <time>2023-04-24T13:41:56Z</time>
      </trkpt>
      <trkpt lat="44.30632" lon="1.64104">
        <ele>286.61</ele>
        <time>2023-04-24T13:42:07Z</time>
      </trkpt>
      <trkpt lat="44.30621" lon="1.64095">
        <ele>285.17</ele>
        <time>2023-04-24T13:42:22Z</time>
      </trkpt>
      <trkpt lat="44.30611" lon="1.64089">
        <ele>284.21</ele>
        <time>2023-04-24T13:42:33Z</time>
      </trkpt>
      <trkpt lat="44.30599" lon="1.64084">
        <ele>283.25</ele>
        <time>2023-04-24T13:42:43Z</time>
      </trkpt>
      <trkpt lat="44.30589" lon="1.64079">
        <ele>281.8</ele>
        <time>2023-04-24T13:42:54Z</time>
      </trkpt>
      <trkpt lat="44.30573" lon="1.64073">
        <ele>280.84</ele>
        <time>2023-04-24T13:43:12Z</time>
      </trkpt>
      <trkpt lat="44.30558" lon="1.64068">
        <ele>278.44</ele>
        <time>2023-04-24T13:43:28Z</time>
      </trkpt>
      <trkpt lat="44.30543" lon="1.64064">
        <ele>277</ele>
        <time>2023-04-24T13:43:42Z</time>
      </trkpt>
      <trkpt lat="44.30529" lon="1.64059">
        <ele>275.07</ele>
        <time>2023-04-24T13:43:56Z</time>
      </trkpt>
      <trkpt lat="44.30503" lon="1.6405">
        <ele>272.19</ele>
        <time>2023-04-24T13:44:22Z</time>
      </trkpt>
      <trkpt lat="44.30485" lon="1.64042">
        <ele>269.79</ele>
        <time>2023-04-24T13:44:41Z</time>
      </trkpt>
      <trkpt lat="44.30472" lon="1.64039">
        <ele>267.86</ele>
        <time>2023-04-24T13:44:56Z</time>
      </trkpt>
      <trkpt lat="44.30458" lon="1.64037">
        <ele>264.98</ele>
        <time>2023-04-24T13:45:15Z</time>
      </trkpt>
      <trkpt lat="44.30444" lon="1.6403">
        <ele>262.58</ele>
        <time>2023-04-24T13:46:06Z</time>
      </trkpt>
      <trkpt lat="44.30442" lon="1.64015">
        <ele>260.65</ele>
        <time>2023-04-24T13:46:23Z</time>
      </trkpt>
      <trkpt lat="44.30431" lon="1.63994">
        <ele>259.21</ele>
        <time>2023-04-24T13:46:40Z</time>
      </trkpt>
      <trkpt lat="44.30415" lon="1.63988">
        <ele>260.17</ele>
        <time>2023-04-24T13:47:00Z</time>
      </trkpt>
      <trkpt lat="44.30405" lon="1.63994">
        <ele>260.65</ele>
        <time>2023-04-24T13:47:12Z</time>
      </trkpt>
      <trkpt lat="44.30395" lon="1.64005">
        <ele>262.1</ele>
        <time>2023-04-24T13:47:32Z</time>
      </trkpt>
      <trkpt lat="44.30386" lon="1.64013">
        <ele>262.58</ele>
        <time>2023-04-24T13:47:44Z</time>
      </trkpt>
      <trkpt lat="44.30376" lon="1.64022">
        <ele>263.54</ele>
        <time>2023-04-24T13:47:55Z</time>
      </trkpt>
      <trkpt lat="44.30365" lon="1.6403">
        <ele>264.5</ele>
        <time>2023-04-24T13:48:06Z</time>
      </trkpt>
      <trkpt lat="44.30352" lon="1.64036">
        <ele>265.94</ele>
        <time>2023-04-24T13:48:19Z</time>
      </trkpt>
      <trkpt lat="44.3034" lon="1.64041">
        <ele>267.38</ele>
        <time>2023-04-24T13:48:32Z</time>
      </trkpt>
      <trkpt lat="44.30327" lon="1.64047">
        <ele>268.83</ele>
        <time>2023-04-24T13:48:46Z</time>
      </trkpt>
      <trkpt lat="44.30314" lon="1.64051">
        <ele>269.79</ele>
        <time>2023-04-24T13:48:59Z</time>
      </trkpt>
      <trkpt lat="44.30303" lon="1.64054">
        <ele>271.23</ele>
        <time>2023-04-24T13:49:10Z</time>
      </trkpt>
      <trkpt lat="44.3029" lon="1.64056">
        <ele>272.19</ele>
        <time>2023-04-24T13:49:23Z</time>
      </trkpt>
      <trkpt lat="44.30277" lon="1.64054">
        <ele>273.63</ele>
        <time>2023-04-24T13:49:35Z</time>
      </trkpt>
      <trkpt lat="44.30264" lon="1.64051">
        <ele>274.59</ele>
        <time>2023-04-24T13:49:48Z</time>
      </trkpt>
      <trkpt lat="44.30252" lon="1.64049">
        <ele>275.56</ele>
        <time>2023-04-24T13:50:00Z</time>
      </trkpt>
      <trkpt lat="44.30239" lon="1.64046">
        <ele>276.52</ele>
        <time>2023-04-24T13:50:12Z</time>
      </trkpt>
      <trkpt lat="44.30226" lon="1.64042">
        <ele>277.96</ele>
        <time>2023-04-24T13:50:24Z</time>
      </trkpt>
      <trkpt lat="44.30214" lon="1.6404">
        <ele>278.92</ele>
        <time>2023-04-24T13:50:36Z</time>
      </trkpt>
      <trkpt lat="44.30201" lon="1.64041">
        <ele>279.4</ele>
        <time>2023-04-24T13:50:49Z</time>
      </trkpt>
      <trkpt lat="44.30187" lon="1.64038">
        <ele>280.36</ele>
        <time>2023-04-24T13:51:01Z</time>
      </trkpt>
      <trkpt lat="44.30175" lon="1.64037">
        <ele>281.32</ele>
        <time>2023-04-24T13:51:13Z</time>
      </trkpt>
      <trkpt lat="44.30162" lon="1.64035">
        <ele>282.28</ele>
        <time>2023-04-24T13:51:24Z</time>
      </trkpt>
      <trkpt lat="44.30149" lon="1.64037">
        <ele>282.77</ele>
        <time>2023-04-24T13:52:35Z</time>
      </trkpt>
      <trkpt lat="44.30133" lon="1.6403">
        <ele>282.77</ele>
        <time>2023-04-24T13:52:56Z</time>
      </trkpt>
      <trkpt lat="44.30121" lon="1.64024">
        <ele>282.77</ele>
        <time>2023-04-24T13:53:08Z</time>
      </trkpt>
      <trkpt lat="44.30109" lon="1.64019">
        <ele>282.77</ele>
        <time>2023-04-24T13:53:20Z</time>
      </trkpt>
      <trkpt lat="44.30097" lon="1.64014">
        <ele>282.77</ele>
        <time>2023-04-24T13:53:32Z</time>
      </trkpt>
      <trkpt lat="44.30086" lon="1.64009">
        <ele>282.77</ele>
        <time>2023-04-24T13:53:43Z</time>
      </trkpt>
      <trkpt lat="44.30075" lon="1.64003">
        <ele>281.32</ele>
        <time>2023-04-24T13:53:55Z</time>
      </trkpt>
      <trkpt lat="44.30063" lon="1.63997">
        <ele>280.36</ele>
        <time>2023-04-24T13:54:08Z</time>
      </trkpt>
      <trkpt lat="44.3005" lon="1.63995">
        <ele>279.4</ele>
        <time>2023-04-24T13:54:23Z</time>
      </trkpt>
      <trkpt lat="44.30037" lon="1.63989">
        <ele>277.48</ele>
        <time>2023-04-24T13:54:39Z</time>
      </trkpt>
      <trkpt lat="44.30026" lon="1.63979">
        <ele>277</ele>
        <time>2023-04-24T13:54:52Z</time>
      </trkpt>
      <trkpt lat="44.30014" lon="1.63969">
        <ele>276.52</ele>
        <time>2023-04-24T13:55:04Z</time>
      </trkpt>
      <trkpt lat="44.3" lon="1.63961">
        <ele>276.52</ele>
        <time>2023-04-24T13:55:19Z</time>
      </trkpt>
      <trkpt lat="44.29988" lon="1.63952">
        <ele>277.48</ele>
        <time>2023-04-24T13:55:30Z</time>
      </trkpt>
      <trkpt lat="44.29975" lon="1.63945">
        <ele>278.44</ele>
        <time>2023-04-24T13:55:42Z</time>
      </trkpt>
      <trkpt lat="44.29963" lon="1.63939">
        <ele>279.4</ele>
        <time>2023-04-24T13:55:55Z</time>
      </trkpt>
      <trkpt lat="44.29951" lon="1.6393">
        <ele>279.88</ele>
        <time>2023-04-24T13:56:08Z</time>
      </trkpt>
      <trkpt lat="44.29938" lon="1.63922">
        <ele>280.36</ele>
        <time>2023-04-24T13:56:22Z</time>
      </trkpt>
      <trkpt lat="44.29926" lon="1.63916">
        <ele>281.32</ele>
        <time>2023-04-24T13:56:34Z</time>
      </trkpt>
      <trkpt lat="44.29914" lon="1.63909">
        <ele>282.77</ele>
        <time>2023-04-24T13:56:47Z</time>
      </trkpt>
      <trkpt lat="44.29901" lon="1.63901">
        <ele>283.25</ele>
        <time>2023-04-24T13:57:02Z</time>
      </trkpt>
      <trkpt lat="44.29889" lon="1.63893">
        <ele>283.73</ele>
        <time>2023-04-24T13:57:15Z</time>
      </trkpt>
      <trkpt lat="44.29879" lon="1.63879">
        <ele>284.21</ele>
        <time>2023-04-24T13:57:42Z</time>
      </trkpt>
      <trkpt lat="44.29874" lon="1.63855">
        <ele>286.13</ele>
        <time>2023-04-24T13:58:00Z</time>
      </trkpt>
      <trkpt lat="44.29872" lon="1.63831">
        <ele>287.09</ele>
        <time>2023-04-24T13:58:15Z</time>
      </trkpt>
      <trkpt lat="44.29867" lon="1.63813">
        <ele>287.57</ele>
        <time>2023-04-24T13:58:30Z</time>
      </trkpt>
      <trkpt lat="44.29863" lon="1.63793">
        <ele>288.53</ele>
        <time>2023-04-24T13:58:45Z</time>
      </trkpt>
      <trkpt lat="44.29856" lon="1.63755">
        <ele>289.01</ele>
        <time>2023-04-24T13:59:11Z</time>
      </trkpt>
      <trkpt lat="44.29854" lon="1.63729">
        <ele>289.49</ele>
        <time>2023-04-24T13:59:28Z</time>
      </trkpt>
      <trkpt lat="44.29851" lon="1.63709">
        <ele>289.49</ele>
        <time>2023-04-24T13:59:42Z</time>
      </trkpt>
      <trkpt lat="44.29854" lon="1.63689">
        <ele>289.97</ele>
        <time>2023-04-24T13:59:56Z</time>
      </trkpt>
      <trkpt lat="44.29858" lon="1.63672">
        <ele>289.97</ele>
        <time>2023-04-24T14:00:07Z</time>
      </trkpt>
      <trkpt lat="44.29862" lon="1.63657">
        <ele>289.97</ele>
        <time>2023-04-24T14:00:17Z</time>
      </trkpt>
      <trkpt lat="44.29866" lon="1.63637">
        <ele>289.97</ele>
        <time>2023-04-24T14:00:30Z</time>
      </trkpt>
      <trkpt lat="44.2987" lon="1.63616">
        <ele>290.46</ele>
        <time>2023-04-24T14:00:43Z</time>
      </trkpt>
      <trkpt lat="44.29879" lon="1.63599">
        <ele>290.46</ele>
        <time>2023-04-24T14:00:56Z</time>
      </trkpt>
      <trkpt lat="44.29888" lon="1.63603">
        <ele>290.46</ele>
        <time>2023-04-24T14:01:06Z</time>
      </trkpt>
      <trkpt lat="44.29901" lon="1.6361">
        <ele>290.94</ele>
        <time>2023-04-24T14:01:17Z</time>
      </trkpt>
      <trkpt lat="44.29909" lon="1.63603">
        <ele>291.42</ele>
        <time>2023-04-24T14:01:27Z</time>
      </trkpt>
      <trkpt lat="44.29921" lon="1.63598">
        <ele>291.42</ele>
        <time>2023-04-24T14:01:38Z</time>
      </trkpt>
      <trkpt lat="44.29929" lon="1.63607">
        <ele>291.42</ele>
        <time>2023-04-24T14:01:56Z</time>
      </trkpt>
      <trkpt lat="44.29923" lon="1.63617">
        <ele>289.97</ele>
        <time>2023-04-24T14:02:19Z</time>
      </trkpt>
      <trkpt lat="44.29916" lon="1.63607">
        <ele>289.97</ele>
        <time>2023-04-24T14:02:31Z</time>
      </trkpt>
      <trkpt lat="44.29908" lon="1.63609">
        <ele>291.42</ele>
        <time>2023-04-24T14:02:42Z</time>
      </trkpt>
      <trkpt lat="44.29899" lon="1.63611">
        <ele>291.42</ele>
        <time>2023-04-24T14:02:58Z</time>
      </trkpt>
      <trkpt lat="44.2989" lon="1.63605">
        <ele>291.42</ele>
        <time>2023-04-24T14:03:10Z</time>
      </trkpt>
      <trkpt lat="44.29881" lon="1.63596">
        <ele>290.46</ele>
        <time>2023-04-24T14:03:21Z</time>
      </trkpt>
      <trkpt lat="44.29878" lon="1.63581">
        <ele>289.97</ele>
        <time>2023-04-24T14:03:34Z</time>
      </trkpt>
      <trkpt lat="44.29878" lon="1.63565">
        <ele>289.97</ele>
        <time>2023-04-24T14:03:45Z</time>
      </trkpt>
      <trkpt lat="44.29878" lon="1.63549">
        <ele>289.97</ele>
        <time>2023-04-24T14:03:56Z</time>
      </trkpt>
      <trkpt lat="44.29879" lon="1.63533">
        <ele>289.97</ele>
        <time>2023-04-24T14:04:06Z</time>
      </trkpt>
      <trkpt lat="44.2988" lon="1.63518">
        <ele>289.97</ele>
        <time>2023-04-24T14:04:17Z</time>
      </trkpt>
      <trkpt lat="44.29881" lon="1.63504">
        <ele>289.97</ele>
        <time>2023-04-24T14:04:27Z</time>
      </trkpt>
      <trkpt lat="44.29882" lon="1.63489">
        <ele>289.97</ele>
        <time>2023-04-24T14:04:38Z</time>
      </trkpt>
      <trkpt lat="44.29883" lon="1.63472">
        <ele>289.97</ele>
        <time>2023-04-24T14:04:48Z</time>
      </trkpt>
      <trkpt lat="44.29884" lon="1.63455">
        <ele>290.94</ele>
        <time>2023-04-24T14:04:58Z</time>
      </trkpt>
      <trkpt lat="44.29886" lon="1.63439">
        <ele>290.94</ele>
        <time>2023-04-24T14:05:08Z</time>
      </trkpt>
      <trkpt lat="44.29888" lon="1.63422">
        <ele>290.94</ele>
        <time>2023-04-24T14:05:19Z</time>
      </trkpt>
      <trkpt lat="44.29892" lon="1.63408">
        <ele>290.94</ele>
        <time>2023-04-24T14:05:29Z</time>
      </trkpt>
      <trkpt lat="44.29897" lon="1.63392">
        <ele>290.94</ele>
        <time>2023-04-24T14:05:39Z</time>
      </trkpt>
      <trkpt lat="44.29906" lon="1.63385">
        <ele>291.9</ele>
        <time>2023-04-24T14:05:51Z</time>
      </trkpt>
      <trkpt lat="44.29916" lon="1.63378">
        <ele>291.9</ele>
        <time>2023-04-24T14:06:01Z</time>
      </trkpt>
      <trkpt lat="44.29928" lon="1.63371">
        <ele>292.38</ele>
        <time>2023-04-24T14:06:11Z</time>
      </trkpt>
      <trkpt lat="44.29937" lon="1.63368">
        <ele>292.86</ele>
        <time>2023-04-24T14:06:21Z</time>
      </trkpt>
      <trkpt lat="44.29948" lon="1.63369">
        <ele>293.34</ele>
        <time>2023-04-24T14:06:32Z</time>
      </trkpt>
      <trkpt lat="44.29959" lon="1.6337">
        <ele>293.34</ele>
        <time>2023-04-24T14:06:43Z</time>
      </trkpt>
      <trkpt lat="44.2997" lon="1.63371">
        <ele>293.82</ele>
        <time>2023-04-24T14:06:52Z</time>
      </trkpt>
      <trkpt lat="44.29981" lon="1.63371">
        <ele>294.3</ele>
        <time>2023-04-24T14:07:03Z</time>
      </trkpt>
      <trkpt lat="44.29994" lon="1.63371">
        <ele>294.78</ele>
        <time>2023-04-24T14:07:14Z</time>
      </trkpt>
      <trkpt lat="44.30008" lon="1.63371">
        <ele>294.78</ele>
        <time>2023-04-24T14:07:27Z</time>
      </trkpt>
      <trkpt lat="44.30024" lon="1.6337">
        <ele>295.26</ele>
        <time>2023-04-24T14:07:43Z</time>
      </trkpt>
      <trkpt lat="44.30038" lon="1.63369">
        <ele>295.26</ele>
        <time>2023-04-24T14:07:56Z</time>
      </trkpt>
      <trkpt lat="44.3005" lon="1.63368">
        <ele>295.74</ele>
        <time>2023-04-24T14:08:12Z</time>
      </trkpt>
      <trkpt lat="44.30061" lon="1.63379">
        <ele>295.74</ele>
        <time>2023-04-24T14:08:28Z</time>
      </trkpt>
      <trkpt lat="44.30071" lon="1.63387">
        <ele>295.74</ele>
        <time>2023-04-24T14:08:38Z</time>
      </trkpt>
      <trkpt lat="44.3008" lon="1.63391">
        <ele>295.74</ele>
        <time>2023-04-24T14:08:50Z</time>
      </trkpt>
      <trkpt lat="44.30091" lon="1.63388">
        <ele>296.22</ele>
        <time>2023-04-24T14:09:10Z</time>
      </trkpt>
      <trkpt lat="44.30099" lon="1.63377">
        <ele>296.22</ele>
        <time>2023-04-24T14:09:32Z</time>
      </trkpt>
      <trkpt lat="44.30107" lon="1.63373">
        <ele>296.7</ele>
        <time>2023-04-24T14:09:46Z</time>
      </trkpt>
      <trkpt lat="44.30114" lon="1.63385">
        <ele>296.7</ele>
        <time>2023-04-24T14:10:06Z</time>
      </trkpt>
      <trkpt lat="44.3012" lon="1.63399">
        <ele>296.7</ele>
        <time>2023-04-24T14:10:20Z</time>
      </trkpt>
      <trkpt lat="44.30129" lon="1.63416">
        <ele>295.74</ele>
        <time>2023-04-24T14:10:42Z</time>
      </trkpt>
      <trkpt lat="44.30128" lon="1.63427">
        <ele>294.78</ele>
        <time>2023-04-24T14:11:13Z</time>
      </trkpt>
      <trkpt lat="44.30125" lon="1.63422">
        <ele>294.78</ele>
        <time>2023-04-24T14:11:46Z</time>
      </trkpt>
      <trkpt lat="44.30125" lon="1.63417">
        <ele>295.74</ele>
        <time>2023-04-24T14:16:35Z</time>
      </trkpt>
      <trkpt lat="44.30128" lon="1.63424">
        <ele>296.7</ele>
        <time>2023-04-24T14:18:54Z</time>
      </trkpt>
      <trkpt lat="44.30123" lon="1.63412">
        <ele>296.7</ele>
        <time>2023-04-24T14:19:25Z</time>
      </trkpt>
      <trkpt lat="44.30116" lon="1.63398">
        <ele>297.18</ele>
        <time>2023-04-24T14:19:40Z</time>
      </trkpt>
      <trkpt lat="44.3011" lon="1.63385">
        <ele>297.67</ele>
        <time>2023-04-24T14:20:10Z</time>
      </trkpt>
      <trkpt lat="44.30104" lon="1.63377">
        <ele>297.67</ele>
        <time>2023-04-24T14:20:36Z</time>
      </trkpt>
      <trkpt lat="44.30097" lon="1.63385">
        <ele>297.67</ele>
        <time>2023-04-24T14:20:47Z</time>
      </trkpt>
      <trkpt lat="44.30098" lon="1.63383">
        <ele>297.67</ele>
        <time>2023-04-24T14:21:03Z</time>
      </trkpt>
      <trkpt lat="44.30101" lon="1.63369">
        <ele>297.67</ele>
        <time>2023-04-24T14:21:26Z</time>
      </trkpt>
      <trkpt lat="44.30092" lon="1.63366">
        <ele>298.15</ele>
        <time>2023-04-24T14:21:51Z</time>
      </trkpt>
      <trkpt lat="44.30083" lon="1.63359">
        <ele>298.15</ele>
        <time>2023-04-24T14:22:01Z</time>
      </trkpt>
      <trkpt lat="44.30073" lon="1.63351">
        <ele>298.15</ele>
        <time>2023-04-24T14:22:12Z</time>
      </trkpt>
      <trkpt lat="44.30064" lon="1.63342">
        <ele>298.15</ele>
        <time>2023-04-24T14:22:23Z</time>
      </trkpt>
      <trkpt lat="44.30055" lon="1.63335">
        <ele>296.7</ele>
        <time>2023-04-24T14:22:35Z</time>
      </trkpt>
      <trkpt lat="44.3005" lon="1.63333">
        <ele>296.7</ele>
        <time>2023-04-24T14:22:49Z</time>
      </trkpt>
      <trkpt lat="44.30048" lon="1.63346">
        <ele>296.7</ele>
        <time>2023-04-24T14:23:00Z</time>
      </trkpt>
      <trkpt lat="44.30049" lon="1.63356">
        <ele>296.7</ele>
        <time>2023-04-24T14:23:20Z</time>
      </trkpt>
      <trkpt lat="44.30051" lon="1.63362">
        <ele>295.74</ele>
        <time>2023-04-24T14:23:57Z</time>
      </trkpt>
      <trkpt lat="44.30047" lon="1.63373">
        <ele>295.74</ele>
        <time>2023-04-24T14:24:18Z</time>
      </trkpt>
      <trkpt lat="44.30035" lon="1.63375">
        <ele>295.74</ele>
        <time>2023-04-24T14:24:32Z</time>
      </trkpt>
      <trkpt lat="44.30024" lon="1.63373">
        <ele>295.74</ele>
        <time>2023-04-24T14:24:44Z</time>
      </trkpt>
      <trkpt lat="44.30011" lon="1.63376">
        <ele>295.74</ele>
        <time>2023-04-24T14:24:56Z</time>
      </trkpt>
      <trkpt lat="44.3" lon="1.63375">
        <ele>295.26</ele>
        <time>2023-04-24T14:25:07Z</time>
      </trkpt>
      <trkpt lat="44.29989" lon="1.63375">
        <ele>294.3</ele>
        <time>2023-04-24T14:25:16Z</time>
      </trkpt>
      <trkpt lat="44.29977" lon="1.63374">
        <ele>294.3</ele>
        <time>2023-04-24T14:25:27Z</time>
      </trkpt>
      <trkpt lat="44.29964" lon="1.63373">
        <ele>293.34</ele>
        <time>2023-04-24T14:25:38Z</time>
      </trkpt>
      <trkpt lat="44.2995" lon="1.63372">
        <ele>293.34</ele>
        <time>2023-04-24T14:25:52Z</time>
      </trkpt>
      <trkpt lat="44.29939" lon="1.63371">
        <ele>293.34</ele>
        <time>2023-04-24T14:26:01Z</time>
      </trkpt>
      <trkpt lat="44.29928" lon="1.63372">
        <ele>292.86</ele>
        <time>2023-04-24T14:26:11Z</time>
      </trkpt>
      <trkpt lat="44.29922" lon="1.63376">
        <ele>291.9</ele>
        <time>2023-04-24T14:27:04Z</time>
      </trkpt>
      <trkpt lat="44.29911" lon="1.63382">
        <ele>291.42</ele>
        <time>2023-04-24T14:27:16Z</time>
      </trkpt>
      <trkpt lat="44.29901" lon="1.63379">
        <ele>290.46</ele>
        <time>2023-04-24T14:27:25Z</time>
      </trkpt>
      <trkpt lat="44.2989" lon="1.63377">
        <ele>289.97</ele>
        <time>2023-04-24T14:27:35Z</time>
      </trkpt>
      <trkpt lat="44.29878" lon="1.63374">
        <ele>289.49</ele>
        <time>2023-04-24T14:27:46Z</time>
      </trkpt>
      <trkpt lat="44.29861" lon="1.6337">
        <ele>289.01</ele>
        <time>2023-04-24T14:29:06Z</time>
      </trkpt>
      <trkpt lat="44.29848" lon="1.63367">
        <ele>288.05</ele>
        <time>2023-04-24T14:29:23Z</time>
      </trkpt>
      <trkpt lat="44.29834" lon="1.63366">
        <ele>287.57</ele>
        <time>2023-04-24T14:29:34Z</time>
      </trkpt>
      <trkpt lat="44.29822" lon="1.63363">
        <ele>287.57</ele>
        <time>2023-04-24T14:29:44Z</time>
      </trkpt>
      <trkpt lat="44.29809" lon="1.6336">
        <ele>287.09</ele>
        <time>2023-04-24T14:29:56Z</time>
      </trkpt>
      <trkpt lat="44.29796" lon="1.63359">
        <ele>287.09</ele>
        <time>2023-04-24T14:30:06Z</time>
      </trkpt>
      <trkpt lat="44.29777" lon="1.63358">
        <ele>286.61</ele>
        <time>2023-04-24T14:30:26Z</time>
      </trkpt>
      <trkpt lat="44.29763" lon="1.63354">
        <ele>286.61</ele>
        <time>2023-04-24T14:30:38Z</time>
      </trkpt>
      <trkpt lat="44.29744" lon="1.63351">
        <ele>286.61</ele>
        <time>2023-04-24T14:31:02Z</time>
      </trkpt>
      <trkpt lat="44.29733" lon="1.63343">
        <ele>286.13</ele>
        <time>2023-04-24T14:31:13Z</time>
      </trkpt>
      <trkpt lat="44.29716" lon="1.63333">
        <ele>287.57</ele>
        <time>2023-04-24T14:31:30Z</time>
      </trkpt>
      <trkpt lat="44.29703" lon="1.63326">
        <ele>288.53</ele>
        <time>2023-04-24T14:31:40Z</time>
      </trkpt>
      <trkpt lat="44.29685" lon="1.63319">
        <ele>289.01</ele>
        <time>2023-04-24T14:32:02Z</time>
      </trkpt>
      <trkpt lat="44.29673" lon="1.63315">
        <ele>289.49</ele>
        <time>2023-04-24T14:32:11Z</time>
      </trkpt>
      <trkpt lat="44.29662" lon="1.63308">
        <ele>289.97</ele>
        <time>2023-04-24T14:32:21Z</time>
      </trkpt>
      <trkpt lat="44.2965" lon="1.63301">
        <ele>290.46</ele>
        <time>2023-04-24T14:32:31Z</time>
      </trkpt>
      <trkpt lat="44.29638" lon="1.63295">
        <ele>291.42</ele>
        <time>2023-04-24T14:32:40Z</time>
      </trkpt>
      <trkpt lat="44.29628" lon="1.6329">
        <ele>291.42</ele>
        <time>2023-04-24T14:32:48Z</time>
      </trkpt>
      <trkpt lat="44.29615" lon="1.63284">
        <ele>292.38</ele>
        <time>2023-04-24T14:33:01Z</time>
      </trkpt>
      <trkpt lat="44.29604" lon="1.6328">
        <ele>292.86</ele>
        <time>2023-04-24T14:33:21Z</time>
      </trkpt>
      <trkpt lat="44.29588" lon="1.63277">
        <ele>293.82</ele>
        <time>2023-04-24T14:33:48Z</time>
      </trkpt>
      <trkpt lat="44.29577" lon="1.63272">
        <ele>294.78</ele>
        <time>2023-04-24T14:34:11Z</time>
      </trkpt>
      <trkpt lat="44.29567" lon="1.63268">
        <ele>295.74</ele>
        <time>2023-04-24T14:34:28Z</time>
      </trkpt>
      <trkpt lat="44.29557" lon="1.63262">
        <ele>296.7</ele>
        <time>2023-04-24T14:34:48Z</time>
      </trkpt>
      <trkpt lat="44.29547" lon="1.63255">
        <ele>298.15</ele>
        <time>2023-04-24T14:35:00Z</time>
      </trkpt>
      <trkpt lat="44.29532" lon="1.63247">
        <ele>299.59</ele>
        <time>2023-04-24T14:35:23Z</time>
      </trkpt>
      <trkpt lat="44.2952" lon="1.63243">
        <ele>301.03</ele>
        <time>2023-04-24T14:35:46Z</time>
      </trkpt>
      <trkpt lat="44.2951" lon="1.63239">
        <ele>301.99</ele>
        <time>2023-04-24T14:35:56Z</time>
      </trkpt>
      <trkpt lat="44.295" lon="1.63235">
        <ele>303.43</ele>
        <time>2023-04-24T14:36:06Z</time>
      </trkpt>
      <trkpt lat="44.29488" lon="1.63231">
        <ele>304.88</ele>
        <time>2023-04-24T14:36:17Z</time>
      </trkpt>
      <trkpt lat="44.29473" lon="1.63229">
        <ele>306.32</ele>
        <time>2023-04-24T14:36:45Z</time>
      </trkpt>
      <trkpt lat="44.29462" lon="1.63224">
        <ele>307.76</ele>
        <time>2023-04-24T14:36:59Z</time>
      </trkpt>
      <trkpt lat="44.29449" lon="1.63219">
        <ele>309.2</ele>
        <time>2023-04-24T14:37:16Z</time>
      </trkpt>
      <trkpt lat="44.29437" lon="1.63213">
        <ele>310.64</ele>
        <time>2023-04-24T14:37:37Z</time>
      </trkpt>
      <trkpt lat="44.29423" lon="1.6321">
        <ele>311.6</ele>
        <time>2023-04-24T14:38:06Z</time>
      </trkpt>
      <trkpt lat="44.29412" lon="1.63204">
        <ele>313.53</ele>
        <time>2023-04-24T14:38:16Z</time>
      </trkpt>
      <trkpt lat="44.29397" lon="1.632">
        <ele>314.97</ele>
        <time>2023-04-24T14:38:37Z</time>
      </trkpt>
      <trkpt lat="44.29391" lon="1.63197">
        <ele>315.93</ele>
        <time>2023-04-24T14:39:05Z</time>
      </trkpt>
      <trkpt lat="44.29389" lon="1.63194">
        <ele>315.93</ele>
        <time>2023-04-24T14:39:52Z</time>
      </trkpt>
      <trkpt lat="44.29367" lon="1.63198">
        <ele>317.85</ele>
        <time>2023-04-24T14:40:26Z</time>
      </trkpt>
      <trkpt lat="44.29355" lon="1.63198">
        <ele>319.78</ele>
        <time>2023-04-24T14:40:44Z</time>
      </trkpt>
      <trkpt lat="44.29336" lon="1.63196">
        <ele>322.18</ele>
        <time>2023-04-24T14:41:10Z</time>
      </trkpt>
      <trkpt lat="44.29322" lon="1.63194">
        <ele>323.62</ele>
        <time>2023-04-24T14:41:23Z</time>
      </trkpt>
      <trkpt lat="44.29309" lon="1.63191">
        <ele>324.1</ele>
        <time>2023-04-24T14:41:37Z</time>
      </trkpt>
      <trkpt lat="44.29293" lon="1.63191">
        <ele>325.06</ele>
        <time>2023-04-24T14:42:00Z</time>
      </trkpt>
      <trkpt lat="44.29281" lon="1.63194">
        <ele>326.02</ele>
        <time>2023-04-24T14:42:19Z</time>
      </trkpt>
      <trkpt lat="44.29267" lon="1.63196">
        <ele>326.99</ele>
        <time>2023-04-24T14:42:36Z</time>
      </trkpt>
      <trkpt lat="44.29255" lon="1.63195">
        <ele>326.99</ele>
        <time>2023-04-24T14:42:48Z</time>
      </trkpt>
      <trkpt lat="44.29242" lon="1.63196">
        <ele>327.47</ele>
        <time>2023-04-24T14:43:00Z</time>
      </trkpt>
      <trkpt lat="44.2923" lon="1.63193">
        <ele>327.47</ele>
        <time>2023-04-24T14:43:10Z</time>
      </trkpt>
      <trkpt lat="44.29219" lon="1.63192">
        <ele>327.47</ele>
        <time>2023-04-24T14:43:20Z</time>
      </trkpt>
      <trkpt lat="44.29196" lon="1.63186">
        <ele>326.02</ele>
        <time>2023-04-24T14:43:51Z</time>
      </trkpt>
      <trkpt lat="44.29181" lon="1.63184">
        <ele>325.06</ele>
        <time>2023-04-24T14:44:04Z</time>
      </trkpt>
      <trkpt lat="44.29163" lon="1.63184">
        <ele>323.14</ele>
        <time>2023-04-24T14:44:30Z</time>
      </trkpt>
      <trkpt lat="44.2915" lon="1.63181">
        <ele>321.7</ele>
        <time>2023-04-24T14:44:43Z</time>
      </trkpt>
      <trkpt lat="44.29137" lon="1.6318">
        <ele>320.26</ele>
        <time>2023-04-24T14:44:55Z</time>
      </trkpt>
      <trkpt lat="44.29124" lon="1.63181">
        <ele>319.3</ele>
        <time>2023-04-24T14:45:06Z</time>
      </trkpt>
      <trkpt lat="44.29112" lon="1.63181">
        <ele>317.85</ele>
        <time>2023-04-24T14:45:16Z</time>
      </trkpt>
      <trkpt lat="44.291" lon="1.63179">
        <ele>316.41</ele>
        <time>2023-04-24T14:45:27Z</time>
      </trkpt>
      <trkpt lat="44.29089" lon="1.63178">
        <ele>315.45</ele>
        <time>2023-04-24T14:45:37Z</time>
      </trkpt>
      <trkpt lat="44.29077" lon="1.63177">
        <ele>314.49</ele>
        <time>2023-04-24T14:45:48Z</time>
      </trkpt>
      <trkpt lat="44.29063" lon="1.63178">
        <ele>313.53</ele>
        <time>2023-04-24T14:46:16Z</time>
      </trkpt>
      <trkpt lat="44.29048" lon="1.63177">
        <ele>312.57</ele>
        <time>2023-04-24T14:46:29Z</time>
      </trkpt>
      <trkpt lat="44.29035" lon="1.63177">
        <ele>312.09</ele>
        <time>2023-04-24T14:46:43Z</time>
      </trkpt>
      <trkpt lat="44.29014" lon="1.63174">
        <ele>311.6</ele>
        <time>2023-04-24T14:47:17Z</time>
      </trkpt>
      <trkpt lat="44.29001" lon="1.63174">
        <ele>311.6</ele>
        <time>2023-04-24T14:47:29Z</time>
      </trkpt>
      <trkpt lat="44.28987" lon="1.63174">
        <ele>311.6</ele>
        <time>2023-04-24T14:47:41Z</time>
      </trkpt>
      <trkpt lat="44.28974" lon="1.63173">
        <ele>311.6</ele>
        <time>2023-04-24T14:47:52Z</time>
      </trkpt>
      <trkpt lat="44.28962" lon="1.63172">
        <ele>311.6</ele>
        <time>2023-04-24T14:48:02Z</time>
      </trkpt>
      <trkpt lat="44.28949" lon="1.6317">
        <ele>311.12</ele>
        <time>2023-04-24T14:48:14Z</time>
      </trkpt>
      <trkpt lat="44.28936" lon="1.63169">
        <ele>310.64</ele>
        <time>2023-04-24T14:48:25Z</time>
      </trkpt>
      <trkpt lat="44.28922" lon="1.63168">
        <ele>310.16</ele>
        <time>2023-04-24T14:48:35Z</time>
      </trkpt>
      <trkpt lat="44.28908" lon="1.63166">
        <ele>310.16</ele>
        <time>2023-04-24T14:48:44Z</time>
      </trkpt>
      <trkpt lat="44.28895" lon="1.63164">
        <ele>310.16</ele>
        <time>2023-04-24T14:48:54Z</time>
      </trkpt>
      <trkpt lat="44.28882" lon="1.63163">
        <ele>309.68</ele>
        <time>2023-04-24T14:49:05Z</time>
      </trkpt>
      <trkpt lat="44.2887" lon="1.63162">
        <ele>308.72</ele>
        <time>2023-04-24T14:49:16Z</time>
      </trkpt>
      <trkpt lat="44.28856" lon="1.63162">
        <ele>308.72</ele>
        <time>2023-04-24T14:49:27Z</time>
      </trkpt>
      <trkpt lat="44.2884" lon="1.63162">
        <ele>307.28</ele>
        <time>2023-04-24T14:49:40Z</time>
      </trkpt>
      <trkpt lat="44.28824" lon="1.63163">
        <ele>306.32</ele>
        <time>2023-04-24T14:49:54Z</time>
      </trkpt>
      <trkpt lat="44.28809" lon="1.63164">
        <ele>305.36</ele>
        <time>2023-04-24T14:50:08Z</time>
      </trkpt>
      <trkpt lat="44.28795" lon="1.63164">
        <ele>303.91</ele>
        <time>2023-04-24T14:50:21Z</time>
      </trkpt>
      <trkpt lat="44.2878" lon="1.63162">
        <ele>303.43</ele>
        <time>2023-04-24T14:50:35Z</time>
      </trkpt>
      <trkpt lat="44.28764" lon="1.6316">
        <ele>301.51</ele>
        <time>2023-04-24T14:50:51Z</time>
      </trkpt>
      <trkpt lat="44.28746" lon="1.6316">
        <ele>300.07</ele>
        <time>2023-04-24T14:51:09Z</time>
      </trkpt>
      <trkpt lat="44.28728" lon="1.6316">
        <ele>298.63</ele>
        <time>2023-04-24T14:51:30Z</time>
      </trkpt>
      <trkpt lat="44.28712" lon="1.63158">
        <ele>297.18</ele>
        <time>2023-04-24T14:51:46Z</time>
      </trkpt>
      <trkpt lat="44.28698" lon="1.63156">
        <ele>295.74</ele>
        <time>2023-04-24T14:52:00Z</time>
      </trkpt>
      <trkpt lat="44.28684" lon="1.63156">
        <ele>294.3</ele>
        <time>2023-04-24T14:52:14Z</time>
      </trkpt>
      <trkpt lat="44.28667" lon="1.63155">
        <ele>292.38</ele>
        <time>2023-04-24T14:52:31Z</time>
      </trkpt>
      <trkpt lat="44.28654" lon="1.63154">
        <ele>290.94</ele>
        <time>2023-04-24T14:52:43Z</time>
      </trkpt>
      <trkpt lat="44.28641" lon="1.63154">
        <ele>289.97</ele>
        <time>2023-04-24T14:52:54Z</time>
      </trkpt>
      <trkpt lat="44.28628" lon="1.63154">
        <ele>289.49</ele>
        <time>2023-04-24T14:53:06Z</time>
      </trkpt>
      <trkpt lat="44.28615" lon="1.63153">
        <ele>289.49</ele>
        <time>2023-04-24T14:53:20Z</time>
      </trkpt>
      <trkpt lat="44.28598" lon="1.63154">
        <ele>289.49</ele>
        <time>2023-04-24T14:53:37Z</time>
      </trkpt>
      <trkpt lat="44.28583" lon="1.63152">
        <ele>289.49</ele>
        <time>2023-04-24T14:53:50Z</time>
      </trkpt>
      <trkpt lat="44.28565" lon="1.63152">
        <ele>289.49</ele>
        <time>2023-04-24T14:54:08Z</time>
      </trkpt>
      <trkpt lat="44.28552" lon="1.63149">
        <ele>289.01</ele>
        <time>2023-04-24T14:54:29Z</time>
      </trkpt>
      <trkpt lat="44.28537" lon="1.63149">
        <ele>289.01</ele>
        <time>2023-04-24T14:54:43Z</time>
      </trkpt>
      <trkpt lat="44.28523" lon="1.63148">
        <ele>288.53</ele>
        <time>2023-04-24T14:54:55Z</time>
      </trkpt>
      <trkpt lat="44.28506" lon="1.63146">
        <ele>288.05</ele>
        <time>2023-04-24T14:55:27Z</time>
      </trkpt>
      <trkpt lat="44.28489" lon="1.63146">
        <ele>289.49</ele>
        <time>2023-04-24T14:55:43Z</time>
      </trkpt>
      <trkpt lat="44.28476" lon="1.63143">
        <ele>289.01</ele>
        <time>2023-04-24T14:55:55Z</time>
      </trkpt>
      <trkpt lat="44.28461" lon="1.6313">
        <ele>289.49</ele>
        <time>2023-04-24T14:56:18Z</time>
      </trkpt>
      <trkpt lat="44.28455" lon="1.63115">
        <ele>290.46</ele>
        <time>2023-04-24T14:56:28Z</time>
      </trkpt>
      <trkpt lat="44.28447" lon="1.63102">
        <ele>290.94</ele>
        <time>2023-04-24T14:56:39Z</time>
      </trkpt>
      <trkpt lat="44.28438" lon="1.63092">
        <ele>290.94</ele>
        <time>2023-04-24T14:56:50Z</time>
      </trkpt>
      <trkpt lat="44.28428" lon="1.63086">
        <ele>290.94</ele>
        <time>2023-04-24T14:56:58Z</time>
      </trkpt>
      <trkpt lat="44.28418" lon="1.63086">
        <ele>290.94</ele>
        <time>2023-04-24T14:57:07Z</time>
      </trkpt>
      <trkpt lat="44.28407" lon="1.63089">
        <ele>290.46</ele>
        <time>2023-04-24T14:57:17Z</time>
      </trkpt>
      <trkpt lat="44.28396" lon="1.63094">
        <ele>290.94</ele>
        <time>2023-04-24T14:57:27Z</time>
      </trkpt>
      <trkpt lat="44.28386" lon="1.63101">
        <ele>290.94</ele>
        <time>2023-04-24T14:57:37Z</time>
      </trkpt>
      <trkpt lat="44.28375" lon="1.63107">
        <ele>290.94</ele>
        <time>2023-04-24T14:57:47Z</time>
      </trkpt>
      <trkpt lat="44.28364" lon="1.63114">
        <ele>290.94</ele>
        <time>2023-04-24T14:57:57Z</time>
      </trkpt>
      <trkpt lat="44.28355" lon="1.63121">
        <ele>290.94</ele>
        <time>2023-04-24T14:58:06Z</time>
      </trkpt>
      <trkpt lat="44.28344" lon="1.63127">
        <ele>290.94</ele>
        <time>2023-04-24T14:58:15Z</time>
      </trkpt>
      <trkpt lat="44.28334" lon="1.63133">
        <ele>290.94</ele>
        <time>2023-04-24T14:58:24Z</time>
      </trkpt>
      <trkpt lat="44.28323" lon="1.63139">
        <ele>289.01</ele>
        <time>2023-04-24T14:58:36Z</time>
      </trkpt>
      <trkpt lat="44.28311" lon="1.63146">
        <ele>289.01</ele>
        <time>2023-04-24T14:58:49Z</time>
      </trkpt>
      <trkpt lat="44.28298" lon="1.63154">
        <ele>288.05</ele>
        <time>2023-04-24T14:59:00Z</time>
      </trkpt>
      <trkpt lat="44.28288" lon="1.63159">
        <ele>288.05</ele>
        <time>2023-04-24T14:59:09Z</time>
      </trkpt>
      <trkpt lat="44.28278" lon="1.63165">
        <ele>288.05</ele>
        <time>2023-04-24T14:59:18Z</time>
      </trkpt>
      <trkpt lat="44.2827" lon="1.63173">
        <ele>287.57</ele>
        <time>2023-04-24T14:59:28Z</time>
      </trkpt>
      <trkpt lat="44.28262" lon="1.63184">
        <ele>287.09</ele>
        <time>2023-04-24T14:59:53Z</time>
      </trkpt>
      <trkpt lat="44.28256" lon="1.63182">
        <ele>287.09</ele>
        <time>2023-04-24T15:00:17Z</time>
      </trkpt>
      <trkpt lat="44.28256" lon="1.63194">
        <ele>287.09</ele>
        <time>2023-04-24T15:00:43Z</time>
      </trkpt>
      <trkpt lat="44.28263" lon="1.63191">
        <ele>288.05</ele>
        <time>2023-04-24T15:01:13Z</time>
      </trkpt>
    </trkseg>
  </trk>
</gpx>